<?xml version="1.0" encoding="UTF-8" standalone="no" ?>
<gpx xmlns="http://www.topografix.com/GPX/1/1" xmlns:xsi="http://www.w3.org/2001/XMLSchema-instance" xsi:schemaLocation="http://www.topografix.com/GPX/1/1 http://www.topografix.com/GPX/1/1/gpx.xsd" version="1.1" creator="VisuGPX - https://www.visugpx.com">
  <metadata>
    <name>traces-juin-sept</name>
  </metadata>
  <trk>
    <name><![CDATA[Tracé actuel: 16 JUIN 2019 16:34]]></name>
    <trkseg>
      <trkpt lat="48.54299" lon="2.53495">
        <ele>40</ele>
        <time>2019-06-16T14:34:03Z</time>
      </trkpt>
      <trkpt lat="48.54352" lon="2.53433">
        <ele>42</ele>
        <time>2019-06-16T14:34:20Z</time>
      </trkpt>
      <trkpt lat="48.54405" lon="2.53382">
        <ele>40</ele>
        <time>2019-06-16T14:34:36Z</time>
      </trkpt>
      <trkpt lat="48.54422" lon="2.53363">
        <ele>41</ele>
        <time>2019-06-16T14:34:41Z</time>
      </trkpt>
      <trkpt lat="48.54445" lon="2.53346">
        <ele>41</ele>
        <time>2019-06-16T14:34:47Z</time>
      </trkpt>
      <trkpt lat="48.54473" lon="2.53325">
        <ele>40</ele>
        <time>2019-06-16T14:34:55Z</time>
      </trkpt>
      <trkpt lat="48.54525" lon="2.53308">
        <ele>41</ele>
        <time>2019-06-16T14:35:08Z</time>
      </trkpt>
      <trkpt lat="48.54546" lon="2.53299">
        <ele>42</ele>
        <time>2019-06-16T14:35:15Z</time>
      </trkpt>
      <trkpt lat="48.54544" lon="2.5326">
        <ele>41</ele>
        <time>2019-06-16T14:35:25Z</time>
      </trkpt>
      <trkpt lat="48.54541" lon="2.53248">
        <ele>41</ele>
        <time>2019-06-16T14:35:28Z</time>
      </trkpt>
      <trkpt lat="48.54547" lon="2.53238">
        <ele>41</ele>
        <time>2019-06-16T14:35:36Z</time>
      </trkpt>
      <trkpt lat="48.54553" lon="2.53222">
        <ele>42</ele>
        <time>2019-06-16T14:35:45Z</time>
      </trkpt>
      <trkpt lat="48.54554" lon="2.53215">
        <ele>42</ele>
        <time>2019-06-16T14:35:48Z</time>
      </trkpt>
      <trkpt lat="48.54552" lon="2.53212">
        <ele>42</ele>
        <time>2019-06-16T14:35:52Z</time>
      </trkpt>
      <trkpt lat="48.54548" lon="2.53205">
        <ele>42</ele>
        <time>2019-06-16T14:35:55Z</time>
      </trkpt>
      <trkpt lat="48.54543" lon="2.53175">
        <ele>42</ele>
        <time>2019-06-16T14:36:01Z</time>
      </trkpt>
      <trkpt lat="48.54542" lon="2.5316">
        <ele>42</ele>
        <time>2019-06-16T14:36:10Z</time>
      </trkpt>
      <trkpt lat="48.54541" lon="2.53157">
        <ele>42</ele>
        <time>2019-06-16T14:36:12Z</time>
      </trkpt>
      <trkpt lat="48.54536" lon="2.53153">
        <ele>42</ele>
        <time>2019-06-16T14:36:15Z</time>
      </trkpt>
      <trkpt lat="48.5452" lon="2.53146">
        <ele>42</ele>
        <time>2019-06-16T14:36:24Z</time>
      </trkpt>
      <trkpt lat="48.54495" lon="2.5314">
        <ele>41</ele>
        <time>2019-06-16T14:36:33Z</time>
      </trkpt>
      <trkpt lat="48.54483" lon="2.53138">
        <ele>41</ele>
        <time>2019-06-16T14:36:37Z</time>
      </trkpt>
      <trkpt lat="48.5446" lon="2.53136">
        <ele>40</ele>
        <time>2019-06-16T14:36:45Z</time>
      </trkpt>
      <trkpt lat="48.54454" lon="2.53142">
        <ele>40</ele>
        <time>2019-06-16T14:36:48Z</time>
      </trkpt>
      <trkpt lat="48.54414" lon="2.53147">
        <ele>40</ele>
        <time>2019-06-16T14:37:01Z</time>
      </trkpt>
      <trkpt lat="48.54401" lon="2.53145">
        <ele>40</ele>
        <time>2019-06-16T14:37:05Z</time>
      </trkpt>
      <trkpt lat="48.54379" lon="2.53161">
        <ele>40</ele>
        <time>2019-06-16T14:37:11Z</time>
      </trkpt>
      <trkpt lat="48.54342" lon="2.53174">
        <ele>41</ele>
        <time>2019-06-16T14:37:22Z</time>
      </trkpt>
      <trkpt lat="48.54315" lon="2.53189">
        <ele>41</ele>
        <time>2019-06-16T14:37:30Z</time>
      </trkpt>
      <trkpt lat="48.54283" lon="2.53195">
        <ele>40</ele>
        <time>2019-06-16T14:37:39Z</time>
      </trkpt>
      <trkpt lat="48.54278" lon="2.53205">
        <ele>40</ele>
        <time>2019-06-16T14:37:41Z</time>
      </trkpt>
      <trkpt lat="48.54261" lon="2.53237">
        <ele>39</ele>
        <time>2019-06-16T14:37:47Z</time>
      </trkpt>
      <trkpt lat="48.54246" lon="2.53259">
        <ele>39</ele>
        <time>2019-06-16T14:37:52Z</time>
      </trkpt>
      <trkpt lat="48.54222" lon="2.53311">
        <ele>40</ele>
        <time>2019-06-16T14:38:01Z</time>
      </trkpt>
      <trkpt lat="48.54199" lon="2.5334">
        <ele>40</ele>
        <time>2019-06-16T14:38:08Z</time>
      </trkpt>
      <trkpt lat="48.54182" lon="2.53357">
        <ele>40</ele>
        <time>2019-06-16T14:38:13Z</time>
      </trkpt>
      <trkpt lat="48.54158" lon="2.53395">
        <ele>40</ele>
        <time>2019-06-16T14:38:23Z</time>
      </trkpt>
      <trkpt lat="48.54143" lon="2.53426">
        <ele>39</ele>
        <time>2019-06-16T14:38:33Z</time>
      </trkpt>
      <trkpt lat="48.54122" lon="2.53434">
        <ele>39</ele>
        <time>2019-06-16T14:38:43Z</time>
      </trkpt>
      <trkpt lat="48.54106" lon="2.53455">
        <ele>39</ele>
        <time>2019-06-16T14:38:50Z</time>
      </trkpt>
      <trkpt lat="48.54099" lon="2.5348">
        <ele>39</ele>
        <time>2019-06-16T14:38:53Z</time>
      </trkpt>
      <trkpt lat="48.54086" lon="2.53494">
        <ele>39</ele>
        <time>2019-06-16T14:38:58Z</time>
      </trkpt>
      <trkpt lat="48.54076" lon="2.53498">
        <ele>39</ele>
        <time>2019-06-16T14:39:02Z</time>
      </trkpt>
      <trkpt lat="48.5406" lon="2.53538">
        <ele>40</ele>
        <time>2019-06-16T14:39:11Z</time>
      </trkpt>
      <trkpt lat="48.54057" lon="2.53564">
        <ele>41</ele>
        <time>2019-06-16T14:39:16Z</time>
      </trkpt>
      <trkpt lat="48.5404" lon="2.53634">
        <ele>40</ele>
        <time>2019-06-16T14:39:28Z</time>
      </trkpt>
      <trkpt lat="48.54033" lon="2.53674">
        <ele>40</ele>
        <time>2019-06-16T14:39:35Z</time>
      </trkpt>
      <trkpt lat="48.54016" lon="2.53736">
        <ele>40</ele>
        <time>2019-06-16T14:39:47Z</time>
      </trkpt>
      <trkpt lat="48.54012" lon="2.53782">
        <ele>41</ele>
        <time>2019-06-16T14:39:55Z</time>
      </trkpt>
      <trkpt lat="48.54019" lon="2.538">
        <ele>41</ele>
        <time>2019-06-16T14:40:00Z</time>
      </trkpt>
      <trkpt lat="48.54038" lon="2.53827">
        <ele>41</ele>
        <time>2019-06-16T14:40:08Z</time>
      </trkpt>
      <trkpt lat="48.54062" lon="2.53851">
        <ele>42</ele>
        <time>2019-06-16T14:40:19Z</time>
      </trkpt>
      <trkpt lat="48.54075" lon="2.53857">
        <ele>42</ele>
        <time>2019-06-16T14:40:24Z</time>
      </trkpt>
      <trkpt lat="48.5412" lon="2.53894">
        <ele>46</ele>
        <time>2019-06-16T14:40:33Z</time>
      </trkpt>
      <trkpt lat="48.54122" lon="2.53917">
        <ele>50</ele>
        <time>2019-06-16T14:40:40Z</time>
      </trkpt>
      <trkpt lat="48.54121" lon="2.53923">
        <ele>50</ele>
        <time>2019-06-16T14:40:42Z</time>
      </trkpt>
      <trkpt lat="48.54121" lon="2.53977">
        <ele>51</ele>
        <time>2019-06-16T14:40:55Z</time>
      </trkpt>
      <trkpt lat="48.54121" lon="2.54004">
        <ele>54</ele>
        <time>2019-06-16T14:41:04Z</time>
      </trkpt>
      <trkpt lat="48.54121" lon="2.5401">
        <ele>54</ele>
        <time>2019-06-16T14:41:07Z</time>
      </trkpt>
      <trkpt lat="48.54118" lon="2.54028">
        <ele>54</ele>
        <time>2019-06-16T14:41:17Z</time>
      </trkpt>
      <trkpt lat="48.54118" lon="2.54059">
        <ele>54</ele>
        <time>2019-06-16T14:41:29Z</time>
      </trkpt>
      <trkpt lat="48.54115" lon="2.54078">
        <ele>54</ele>
        <time>2019-06-16T14:41:39Z</time>
      </trkpt>
      <trkpt lat="48.54114" lon="2.54086">
        <ele>55</ele>
        <time>2019-06-16T14:41:46Z</time>
      </trkpt>
      <trkpt lat="48.54112" lon="2.54102">
        <ele>55</ele>
        <time>2019-06-16T14:41:55Z</time>
      </trkpt>
      <trkpt lat="48.5411" lon="2.54123">
        <ele>55</ele>
        <time>2019-06-16T14:42:07Z</time>
      </trkpt>
      <trkpt lat="48.54115" lon="2.54146">
        <ele>56</ele>
        <time>2019-06-16T14:42:16Z</time>
      </trkpt>
      <trkpt lat="48.54118" lon="2.54149">
        <ele>56</ele>
        <time>2019-06-16T14:42:18Z</time>
      </trkpt>
      <trkpt lat="48.5412" lon="2.54152">
        <ele>56</ele>
        <time>2019-06-16T14:42:20Z</time>
      </trkpt>
      <trkpt lat="48.54129" lon="2.54171">
        <ele>58</ele>
        <time>2019-06-16T14:42:29Z</time>
      </trkpt>
      <trkpt lat="48.54148" lon="2.54176">
        <ele>59</ele>
        <time>2019-06-16T14:42:39Z</time>
      </trkpt>
      <trkpt lat="48.54162" lon="2.54184">
        <ele>59</ele>
        <time>2019-06-16T14:42:44Z</time>
      </trkpt>
      <trkpt lat="48.54179" lon="2.54193">
        <ele>61</ele>
        <time>2019-06-16T14:42:50Z</time>
      </trkpt>
      <trkpt lat="48.542" lon="2.54202">
        <ele>61</ele>
        <time>2019-06-16T14:42:56Z</time>
      </trkpt>
      <trkpt lat="48.54242" lon="2.54232">
        <ele>61</ele>
        <time>2019-06-16T14:43:07Z</time>
      </trkpt>
      <trkpt lat="48.54254" lon="2.5427">
        <ele>61</ele>
        <time>2019-06-16T14:43:14Z</time>
      </trkpt>
      <trkpt lat="48.54238" lon="2.5435">
        <ele>60</ele>
        <time>2019-06-16T14:43:29Z</time>
      </trkpt>
      <trkpt lat="48.54228" lon="2.54415">
        <ele>61</ele>
        <time>2019-06-16T14:43:39Z</time>
      </trkpt>
      <trkpt lat="48.54218" lon="2.54466">
        <ele>62</ele>
        <time>2019-06-16T14:43:47Z</time>
      </trkpt>
      <trkpt lat="48.54214" lon="2.54491">
        <ele>62</ele>
        <time>2019-06-16T14:43:51Z</time>
      </trkpt>
      <trkpt lat="48.54211" lon="2.5451">
        <ele>63</ele>
        <time>2019-06-16T14:43:54Z</time>
      </trkpt>
      <trkpt lat="48.54194" lon="2.54574">
        <ele>63</ele>
        <time>2019-06-16T14:44:05Z</time>
      </trkpt>
      <trkpt lat="48.5419" lon="2.54592">
        <ele>64</ele>
        <time>2019-06-16T14:44:08Z</time>
      </trkpt>
      <trkpt lat="48.54178" lon="2.5464">
        <ele>64</ele>
        <time>2019-06-16T14:44:18Z</time>
      </trkpt>
      <trkpt lat="48.54162" lon="2.54715">
        <ele>64</ele>
        <time>2019-06-16T14:44:30Z</time>
      </trkpt>
      <trkpt lat="48.5415" lon="2.54783">
        <ele>64</ele>
        <time>2019-06-16T14:44:41Z</time>
      </trkpt>
      <trkpt lat="48.54138" lon="2.54842">
        <ele>65</ele>
        <time>2019-06-16T14:44:49Z</time>
      </trkpt>
      <trkpt lat="48.5413" lon="2.54873">
        <ele>65</ele>
        <time>2019-06-16T14:44:53Z</time>
      </trkpt>
      <trkpt lat="48.54127" lon="2.54886">
        <ele>65</ele>
        <time>2019-06-16T14:44:55Z</time>
      </trkpt>
      <trkpt lat="48.54123" lon="2.54913">
        <ele>65</ele>
        <time>2019-06-16T14:45:00Z</time>
      </trkpt>
      <trkpt lat="48.54114" lon="2.54952">
        <ele>67</ele>
        <time>2019-06-16T14:45:08Z</time>
      </trkpt>
      <trkpt lat="48.541" lon="2.54971">
        <ele>67</ele>
        <time>2019-06-16T14:45:16Z</time>
      </trkpt>
      <trkpt lat="48.54116" lon="2.54986">
        <ele>67</ele>
        <time>2019-06-16T14:45:23Z</time>
      </trkpt>
      <trkpt lat="48.54152" lon="2.55014">
        <ele>70</ele>
        <time>2019-06-16T14:45:36Z</time>
      </trkpt>
      <trkpt lat="48.54179" lon="2.55046">
        <ele>71</ele>
        <time>2019-06-16T14:45:45Z</time>
      </trkpt>
      <trkpt lat="48.5422" lon="2.55079">
        <ele>71</ele>
        <time>2019-06-16T14:45:57Z</time>
      </trkpt>
      <trkpt lat="48.5426" lon="2.55113">
        <ele>72</ele>
        <time>2019-06-16T14:46:10Z</time>
      </trkpt>
      <trkpt lat="48.54287" lon="2.55131">
        <ele>73</ele>
        <time>2019-06-16T14:46:18Z</time>
      </trkpt>
      <trkpt lat="48.54329" lon="2.55127">
        <ele>73</ele>
        <time>2019-06-16T14:46:28Z</time>
      </trkpt>
      <trkpt lat="48.54338" lon="2.55124">
        <ele>74</ele>
        <time>2019-06-16T14:46:30Z</time>
      </trkpt>
      <trkpt lat="48.54363" lon="2.55112">
        <ele>74</ele>
        <time>2019-06-16T14:46:36Z</time>
      </trkpt>
      <trkpt lat="48.54375" lon="2.55109">
        <ele>74</ele>
        <time>2019-06-16T14:46:38Z</time>
      </trkpt>
      <trkpt lat="48.54399" lon="2.55102">
        <ele>74</ele>
        <time>2019-06-16T14:46:43Z</time>
      </trkpt>
      <trkpt lat="48.54408" lon="2.551">
        <ele>74</ele>
        <time>2019-06-16T14:46:45Z</time>
      </trkpt>
      <trkpt lat="48.5443" lon="2.5509">
        <ele>74</ele>
        <time>2019-06-16T14:46:50Z</time>
      </trkpt>
      <trkpt lat="48.54452" lon="2.55083">
        <ele>73</ele>
        <time>2019-06-16T14:46:54Z</time>
      </trkpt>
      <trkpt lat="48.54461" lon="2.5508">
        <ele>73</ele>
        <time>2019-06-16T14:46:56Z</time>
      </trkpt>
      <trkpt lat="48.5451" lon="2.55063">
        <ele>74</ele>
        <time>2019-06-16T14:47:06Z</time>
      </trkpt>
      <trkpt lat="48.54529" lon="2.55059">
        <ele>74</ele>
        <time>2019-06-16T14:47:10Z</time>
      </trkpt>
      <trkpt lat="48.54546" lon="2.55051">
        <ele>74</ele>
        <time>2019-06-16T14:47:14Z</time>
      </trkpt>
      <trkpt lat="48.54584" lon="2.55032">
        <ele>74</ele>
        <time>2019-06-16T14:47:23Z</time>
      </trkpt>
      <trkpt lat="48.54611" lon="2.55023">
        <ele>73</ele>
        <time>2019-06-16T14:47:29Z</time>
      </trkpt>
      <trkpt lat="48.54629" lon="2.55019">
        <ele>73</ele>
        <time>2019-06-16T14:47:35Z</time>
      </trkpt>
      <trkpt lat="48.54654" lon="2.55007">
        <ele>73</ele>
        <time>2019-06-16T14:47:39Z</time>
      </trkpt>
      <trkpt lat="48.54705" lon="2.54988">
        <ele>71</ele>
        <time>2019-06-16T14:47:48Z</time>
      </trkpt>
      <trkpt lat="48.54762" lon="2.54963">
        <ele>71</ele>
        <time>2019-06-16T14:48:00Z</time>
      </trkpt>
      <trkpt lat="48.54775" lon="2.54959">
        <ele>71</ele>
        <time>2019-06-16T14:48:02Z</time>
      </trkpt>
      <trkpt lat="48.54795" lon="2.5495">
        <ele>71</ele>
        <time>2019-06-16T14:48:06Z</time>
      </trkpt>
      <trkpt lat="48.5481" lon="2.54944">
        <ele>71</ele>
        <time>2019-06-16T14:48:09Z</time>
      </trkpt>
      <trkpt lat="48.5483" lon="2.54938">
        <ele>70</ele>
        <time>2019-06-16T14:48:13Z</time>
      </trkpt>
      <trkpt lat="48.54889" lon="2.54913">
        <ele>68</ele>
        <time>2019-06-16T14:48:23Z</time>
      </trkpt>
      <trkpt lat="48.54908" lon="2.54905">
        <ele>68</ele>
        <time>2019-06-16T14:48:26Z</time>
      </trkpt>
      <trkpt lat="48.5492" lon="2.54901">
        <ele>68</ele>
        <time>2019-06-16T14:48:28Z</time>
      </trkpt>
      <trkpt lat="48.54957" lon="2.54886">
        <ele>66</ele>
        <time>2019-06-16T14:48:34Z</time>
      </trkpt>
      <trkpt lat="48.54985" lon="2.54877">
        <ele>66</ele>
        <time>2019-06-16T14:48:38Z</time>
      </trkpt>
      <trkpt lat="48.55062" lon="2.5485">
        <ele>63</ele>
        <time>2019-06-16T14:48:49Z</time>
      </trkpt>
      <trkpt lat="48.55156" lon="2.54814">
        <ele>58</ele>
        <time>2019-06-16T14:49:03Z</time>
      </trkpt>
      <trkpt lat="48.55198" lon="2.54801">
        <ele>56</ele>
        <time>2019-06-16T14:49:10Z</time>
      </trkpt>
      <trkpt lat="48.55237" lon="2.54824">
        <ele>56</ele>
        <time>2019-06-16T14:49:18Z</time>
      </trkpt>
      <trkpt lat="48.55239" lon="2.5483">
        <ele>56</ele>
        <time>2019-06-16T14:49:19Z</time>
      </trkpt>
      <trkpt lat="48.55249" lon="2.54879">
        <ele>59</ele>
        <time>2019-06-16T14:49:31Z</time>
      </trkpt>
      <trkpt lat="48.55248" lon="2.54907">
        <ele>60</ele>
        <time>2019-06-16T14:49:44Z</time>
      </trkpt>
      <trkpt lat="48.5525" lon="2.54911">
        <ele>59</ele>
        <time>2019-06-16T14:50:08Z</time>
      </trkpt>
      <trkpt lat="48.5525" lon="2.54909">
        <ele>60</ele>
        <time>2019-06-16T14:50:35Z</time>
      </trkpt>
      <trkpt lat="48.55249" lon="2.54907">
        <ele>60</ele>
        <time>2019-06-16T14:51:08Z</time>
      </trkpt>
      <trkpt lat="48.5525" lon="2.54908">
        <ele>60</ele>
        <time>2019-06-16T14:51:41Z</time>
      </trkpt>
      <trkpt lat="48.55248" lon="2.54908">
        <ele>60</ele>
        <time>2019-06-16T14:52:09Z</time>
      </trkpt>
      <trkpt lat="48.55248" lon="2.54908">
        <ele>60</ele>
        <time>2019-06-16T14:52:32Z</time>
      </trkpt>
      <trkpt lat="48.55249" lon="2.54909">
        <ele>60</ele>
        <time>2019-06-16T14:53:02Z</time>
      </trkpt>
      <trkpt lat="48.5525" lon="2.5491">
        <ele>60</ele>
        <time>2019-06-16T14:53:19Z</time>
      </trkpt>
      <trkpt lat="48.55249" lon="2.54909">
        <ele>60</ele>
        <time>2019-06-16T14:53:45Z</time>
      </trkpt>
      <trkpt lat="48.55249" lon="2.5491">
        <ele>60</ele>
        <time>2019-06-16T14:54:12Z</time>
      </trkpt>
      <trkpt lat="48.5525" lon="2.54908">
        <ele>59</ele>
        <time>2019-06-16T14:54:37Z</time>
      </trkpt>
      <trkpt lat="48.5525" lon="2.54913">
        <ele>60</ele>
        <time>2019-06-16T14:54:51Z</time>
      </trkpt>
      <trkpt lat="48.55245" lon="2.54953">
        <ele>62</ele>
        <time>2019-06-16T14:55:03Z</time>
      </trkpt>
      <trkpt lat="48.55242" lon="2.54996">
        <ele>62</ele>
        <time>2019-06-16T14:55:15Z</time>
      </trkpt>
      <trkpt lat="48.55234" lon="2.5505">
        <ele>66</ele>
        <time>2019-06-16T14:55:30Z</time>
      </trkpt>
      <trkpt lat="48.55228" lon="2.55106">
        <ele>68</ele>
        <time>2019-06-16T14:55:43Z</time>
      </trkpt>
      <trkpt lat="48.55224" lon="2.55171">
        <ele>71</ele>
        <time>2019-06-16T14:55:57Z</time>
      </trkpt>
      <trkpt lat="48.55219" lon="2.55226">
        <ele>73</ele>
        <time>2019-06-16T14:56:09Z</time>
      </trkpt>
      <trkpt lat="48.55213" lon="2.55302">
        <ele>77</ele>
        <time>2019-06-16T14:56:25Z</time>
      </trkpt>
      <trkpt lat="48.55206" lon="2.55384">
        <ele>80</ele>
        <time>2019-06-16T14:56:41Z</time>
      </trkpt>
      <trkpt lat="48.552" lon="2.55472">
        <ele>82</ele>
        <time>2019-06-16T14:56:57Z</time>
      </trkpt>
      <trkpt lat="48.55203" lon="2.55553">
        <ele>83</ele>
        <time>2019-06-16T14:57:11Z</time>
      </trkpt>
      <trkpt lat="48.55203" lon="2.55578">
        <ele>83</ele>
        <time>2019-06-16T14:57:15Z</time>
      </trkpt>
      <trkpt lat="48.55219" lon="2.55699">
        <ele>84</ele>
        <time>2019-06-16T14:57:32Z</time>
      </trkpt>
      <trkpt lat="48.55235" lon="2.55818">
        <ele>84</ele>
        <time>2019-06-16T14:57:48Z</time>
      </trkpt>
      <trkpt lat="48.55257" lon="2.55863">
        <ele>83</ele>
        <time>2019-06-16T14:57:56Z</time>
      </trkpt>
      <trkpt lat="48.55261" lon="2.55876">
        <ele>83</ele>
        <time>2019-06-16T14:57:58Z</time>
      </trkpt>
      <trkpt lat="48.55286" lon="2.56003">
        <ele>83</ele>
        <time>2019-06-16T14:58:13Z</time>
      </trkpt>
      <trkpt lat="48.55297" lon="2.56056">
        <ele>83</ele>
        <time>2019-06-16T14:58:19Z</time>
      </trkpt>
      <trkpt lat="48.55325" lon="2.562">
        <ele>82</ele>
        <time>2019-06-16T14:58:34Z</time>
      </trkpt>
      <trkpt lat="48.55326" lon="2.5621">
        <ele>82</ele>
        <time>2019-06-16T14:58:35Z</time>
      </trkpt>
      <trkpt lat="48.55335" lon="2.56249">
        <ele>82</ele>
        <time>2019-06-16T14:58:39Z</time>
      </trkpt>
      <trkpt lat="48.55353" lon="2.56338">
        <ele>81</ele>
        <time>2019-06-16T14:58:48Z</time>
      </trkpt>
      <trkpt lat="48.55357" lon="2.5638">
        <ele>81</ele>
        <time>2019-06-16T14:58:52Z</time>
      </trkpt>
      <trkpt lat="48.55367" lon="2.56416">
        <ele>81</ele>
        <time>2019-06-16T14:58:56Z</time>
      </trkpt>
      <trkpt lat="48.55377" lon="2.5646">
        <ele>79</ele>
        <time>2019-06-16T14:59:01Z</time>
      </trkpt>
      <trkpt lat="48.55382" lon="2.56477">
        <ele>79</ele>
        <time>2019-06-16T14:59:03Z</time>
      </trkpt>
      <trkpt lat="48.55391" lon="2.56509">
        <ele>77</ele>
        <time>2019-06-16T14:59:07Z</time>
      </trkpt>
      <trkpt lat="48.55396" lon="2.56525">
        <ele>77</ele>
        <time>2019-06-16T14:59:09Z</time>
      </trkpt>
      <trkpt lat="48.5542" lon="2.56653">
        <ele>78</ele>
        <time>2019-06-16T14:59:24Z</time>
      </trkpt>
      <trkpt lat="48.5543" lon="2.56688">
        <ele>79</ele>
        <time>2019-06-16T14:59:30Z</time>
      </trkpt>
      <trkpt lat="48.55425" lon="2.56703">
        <ele>79</ele>
        <time>2019-06-16T14:59:36Z</time>
      </trkpt>
      <trkpt lat="48.55417" lon="2.56703">
        <ele>79</ele>
        <time>2019-06-16T14:59:38Z</time>
      </trkpt>
      <trkpt lat="48.55378" lon="2.56707">
        <ele>79</ele>
        <time>2019-06-16T14:59:48Z</time>
      </trkpt>
      <trkpt lat="48.55356" lon="2.56719">
        <ele>79</ele>
        <time>2019-06-16T14:59:53Z</time>
      </trkpt>
      <trkpt lat="48.55316" lon="2.56739">
        <ele>79</ele>
        <time>2019-06-16T15:00:02Z</time>
      </trkpt>
      <trkpt lat="48.55284" lon="2.56749">
        <ele>78</ele>
        <time>2019-06-16T15:00:09Z</time>
      </trkpt>
      <trkpt lat="48.55257" lon="2.56757">
        <ele>78</ele>
        <time>2019-06-16T15:00:15Z</time>
      </trkpt>
      <trkpt lat="48.55234" lon="2.56763">
        <ele>78</ele>
        <time>2019-06-16T15:00:23Z</time>
      </trkpt>
      <trkpt lat="48.5524" lon="2.56762">
        <ele>78</ele>
        <time>2019-06-16T15:00:29Z</time>
      </trkpt>
      <trkpt lat="48.5524" lon="2.56766">
        <ele>78</ele>
        <time>2019-06-16T15:00:31Z</time>
      </trkpt>
      <trkpt lat="48.55239" lon="2.56782">
        <ele>79</ele>
        <time>2019-06-16T15:00:37Z</time>
      </trkpt>
      <trkpt lat="48.55237" lon="2.56801">
        <ele>79</ele>
        <time>2019-06-16T15:00:43Z</time>
      </trkpt>
      <trkpt lat="48.55233" lon="2.56822">
        <ele>80</ele>
        <time>2019-06-16T15:00:51Z</time>
      </trkpt>
      <trkpt lat="48.5523" lon="2.56824">
        <ele>80</ele>
        <time>2019-06-16T15:00:52Z</time>
      </trkpt>
      <trkpt lat="48.55217" lon="2.56835">
        <ele>82</ele>
        <time>2019-06-16T15:00:57Z</time>
      </trkpt>
      <trkpt lat="48.55191" lon="2.56843">
        <ele>82</ele>
        <time>2019-06-16T15:01:06Z</time>
      </trkpt>
      <trkpt lat="48.55174" lon="2.56848">
        <ele>82</ele>
        <time>2019-06-16T15:01:12Z</time>
      </trkpt>
      <trkpt lat="48.5516" lon="2.56851">
        <ele>82</ele>
        <time>2019-06-16T15:01:17Z</time>
      </trkpt>
      <trkpt lat="48.55145" lon="2.56859">
        <ele>82</ele>
        <time>2019-06-16T15:01:23Z</time>
      </trkpt>
      <trkpt lat="48.55132" lon="2.56873">
        <ele>82</ele>
        <time>2019-06-16T15:01:33Z</time>
      </trkpt>
      <trkpt lat="48.5513" lon="2.56872">
        <ele>82</ele>
        <time>2019-06-16T15:01:51Z</time>
      </trkpt>
      <trkpt lat="48.55118" lon="2.56883">
        <ele>82</ele>
        <time>2019-06-16T15:02:02Z</time>
      </trkpt>
      <trkpt lat="48.5511" lon="2.56895">
        <ele>82</ele>
        <time>2019-06-16T15:02:06Z</time>
      </trkpt>
      <trkpt lat="48.55116" lon="2.56924">
        <ele>83</ele>
        <time>2019-06-16T15:02:15Z</time>
      </trkpt>
      <trkpt lat="48.55136" lon="2.56937">
        <ele>83</ele>
        <time>2019-06-16T15:02:22Z</time>
      </trkpt>
      <trkpt lat="48.55146" lon="2.56969">
        <ele>83</ele>
        <time>2019-06-16T15:02:30Z</time>
      </trkpt>
      <trkpt lat="48.55178" lon="2.57007">
        <ele>83</ele>
        <time>2019-06-16T15:02:41Z</time>
      </trkpt>
      <trkpt lat="48.55203" lon="2.57006">
        <ele>82</ele>
        <time>2019-06-16T15:02:49Z</time>
      </trkpt>
      <trkpt lat="48.55238" lon="2.56976">
        <ele>83</ele>
        <time>2019-06-16T15:02:59Z</time>
      </trkpt>
      <trkpt lat="48.55243" lon="2.56969">
        <ele>83</ele>
        <time>2019-06-16T15:03:01Z</time>
      </trkpt>
      <trkpt lat="48.55258" lon="2.56954">
        <ele>83</ele>
        <time>2019-06-16T15:03:07Z</time>
      </trkpt>
      <trkpt lat="48.5527" lon="2.56972">
        <ele>82</ele>
        <time>2019-06-16T15:03:15Z</time>
      </trkpt>
      <trkpt lat="48.55272" lon="2.56977">
        <ele>82</ele>
        <time>2019-06-16T15:03:16Z</time>
      </trkpt>
      <trkpt lat="48.55287" lon="2.57009">
        <ele>82</ele>
        <time>2019-06-16T15:03:23Z</time>
      </trkpt>
      <trkpt lat="48.55293" lon="2.57028">
        <ele>82</ele>
        <time>2019-06-16T15:03:27Z</time>
      </trkpt>
      <trkpt lat="48.55303" lon="2.57069">
        <ele>82</ele>
        <time>2019-06-16T15:03:36Z</time>
      </trkpt>
      <trkpt lat="48.55322" lon="2.57118">
        <ele>83</ele>
        <time>2019-06-16T15:03:46Z</time>
      </trkpt>
      <trkpt lat="48.55339" lon="2.57179">
        <ele>84</ele>
        <time>2019-06-16T15:03:56Z</time>
      </trkpt>
      <trkpt lat="48.55349" lon="2.57227">
        <ele>84</ele>
        <time>2019-06-16T15:04:04Z</time>
      </trkpt>
      <trkpt lat="48.55356" lon="2.57256">
        <ele>84</ele>
        <time>2019-06-16T15:04:13Z</time>
      </trkpt>
      <trkpt lat="48.55358" lon="2.5726">
        <ele>84</ele>
        <time>2019-06-16T15:04:14Z</time>
      </trkpt>
      <trkpt lat="48.55362" lon="2.57267">
        <ele>84</ele>
        <time>2019-06-16T15:04:16Z</time>
      </trkpt>
      <trkpt lat="48.55373" lon="2.57313">
        <ele>84</ele>
        <time>2019-06-16T15:04:26Z</time>
      </trkpt>
      <trkpt lat="48.5537" lon="2.57339">
        <ele>83</ele>
        <time>2019-06-16T15:04:31Z</time>
      </trkpt>
      <trkpt lat="48.55365" lon="2.57363">
        <ele>83</ele>
        <time>2019-06-16T15:04:37Z</time>
      </trkpt>
      <trkpt lat="48.55353" lon="2.57404">
        <ele>82</ele>
        <time>2019-06-16T15:04:46Z</time>
      </trkpt>
      <trkpt lat="48.5535" lon="2.57411">
        <ele>82</ele>
        <time>2019-06-16T15:04:48Z</time>
      </trkpt>
      <trkpt lat="48.55343" lon="2.57436">
        <ele>81</ele>
        <time>2019-06-16T15:04:53Z</time>
      </trkpt>
      <trkpt lat="48.55354" lon="2.5748">
        <ele>81</ele>
        <time>2019-06-16T15:05:00Z</time>
      </trkpt>
      <trkpt lat="48.55367" lon="2.5751">
        <ele>80</ele>
        <time>2019-06-16T15:05:05Z</time>
      </trkpt>
      <trkpt lat="48.55378" lon="2.57533">
        <ele>80</ele>
        <time>2019-06-16T15:05:09Z</time>
      </trkpt>
      <trkpt lat="48.55388" lon="2.57555">
        <ele>80</ele>
        <time>2019-06-16T15:05:13Z</time>
      </trkpt>
      <trkpt lat="48.5539" lon="2.57587">
        <ele>80</ele>
        <time>2019-06-16T15:05:19Z</time>
      </trkpt>
      <trkpt lat="48.55387" lon="2.5759">
        <ele>80</ele>
        <time>2019-06-16T15:05:20Z</time>
      </trkpt>
      <trkpt lat="48.55381" lon="2.57598">
        <ele>80</ele>
        <time>2019-06-16T15:05:23Z</time>
      </trkpt>
      <trkpt lat="48.5538" lon="2.57632">
        <ele>81</ele>
        <time>2019-06-16T15:05:29Z</time>
      </trkpt>
      <trkpt lat="48.55386" lon="2.57683">
        <ele>82</ele>
        <time>2019-06-16T15:05:39Z</time>
      </trkpt>
      <trkpt lat="48.55393" lon="2.57702">
        <ele>82</ele>
        <time>2019-06-16T15:05:43Z</time>
      </trkpt>
      <trkpt lat="48.55399" lon="2.5772">
        <ele>82</ele>
        <time>2019-06-16T15:05:46Z</time>
      </trkpt>
      <trkpt lat="48.55399" lon="2.5776">
        <ele>82</ele>
        <time>2019-06-16T15:05:54Z</time>
      </trkpt>
      <trkpt lat="48.55405" lon="2.57792">
        <ele>82</ele>
        <time>2019-06-16T15:05:59Z</time>
      </trkpt>
      <trkpt lat="48.55404" lon="2.57816">
        <ele>81</ele>
        <time>2019-06-16T15:06:03Z</time>
      </trkpt>
      <trkpt lat="48.55413" lon="2.57864">
        <ele>81</ele>
        <time>2019-06-16T15:06:12Z</time>
      </trkpt>
      <trkpt lat="48.55424" lon="2.57893">
        <ele>77</ele>
        <time>2019-06-16T15:06:18Z</time>
      </trkpt>
      <trkpt lat="48.55427" lon="2.579">
        <ele>77</ele>
        <time>2019-06-16T15:06:25Z</time>
      </trkpt>
      <trkpt lat="48.55434" lon="2.57921">
        <ele>76</ele>
        <time>2019-06-16T15:06:31Z</time>
      </trkpt>
      <trkpt lat="48.55433" lon="2.57934">
        <ele>76</ele>
        <time>2019-06-16T15:06:33Z</time>
      </trkpt>
      <trkpt lat="48.55426" lon="2.58038">
        <ele>74</ele>
        <time>2019-06-16T15:06:49Z</time>
      </trkpt>
      <trkpt lat="48.55426" lon="2.58052">
        <ele>74</ele>
        <time>2019-06-16T15:06:51Z</time>
      </trkpt>
      <trkpt lat="48.55425" lon="2.58142">
        <ele>73</ele>
        <time>2019-06-16T15:07:04Z</time>
      </trkpt>
      <trkpt lat="48.55426" lon="2.58241">
        <ele>74</ele>
        <time>2019-06-16T15:07:17Z</time>
      </trkpt>
      <trkpt lat="48.55431" lon="2.58288">
        <ele>73</ele>
        <time>2019-06-16T15:07:23Z</time>
      </trkpt>
      <trkpt lat="48.55435" lon="2.58349">
        <ele>73</ele>
        <time>2019-06-16T15:07:31Z</time>
      </trkpt>
      <trkpt lat="48.55436" lon="2.58362">
        <ele>72</ele>
        <time>2019-06-16T15:07:33Z</time>
      </trkpt>
      <trkpt lat="48.55439" lon="2.58415">
        <ele>71</ele>
        <time>2019-06-16T15:07:43Z</time>
      </trkpt>
      <trkpt lat="48.55421" lon="2.58427">
        <ele>72</ele>
        <time>2019-06-16T15:07:53Z</time>
      </trkpt>
      <trkpt lat="48.55387" lon="2.58424">
        <ele>73</ele>
        <time>2019-06-16T15:08:01Z</time>
      </trkpt>
      <trkpt lat="48.55366" lon="2.58421">
        <ele>74</ele>
        <time>2019-06-16T15:08:06Z</time>
      </trkpt>
      <trkpt lat="48.55344" lon="2.58418">
        <ele>75</ele>
        <time>2019-06-16T15:08:11Z</time>
      </trkpt>
      <trkpt lat="48.55326" lon="2.58414">
        <ele>75</ele>
        <time>2019-06-16T15:08:15Z</time>
      </trkpt>
      <trkpt lat="48.55269" lon="2.58407">
        <ele>77</ele>
        <time>2019-06-16T15:08:28Z</time>
      </trkpt>
      <trkpt lat="48.55252" lon="2.58401">
        <ele>77</ele>
        <time>2019-06-16T15:08:32Z</time>
      </trkpt>
      <trkpt lat="48.55196" lon="2.58384">
        <ele>77</ele>
        <time>2019-06-16T15:08:46Z</time>
      </trkpt>
      <trkpt lat="48.5514" lon="2.58365">
        <ele>78</ele>
        <time>2019-06-16T15:09:00Z</time>
      </trkpt>
      <trkpt lat="48.55089" lon="2.58349">
        <ele>78</ele>
        <time>2019-06-16T15:09:13Z</time>
      </trkpt>
      <trkpt lat="48.55047" lon="2.58335">
        <ele>79</ele>
        <time>2019-06-16T15:09:24Z</time>
      </trkpt>
      <trkpt lat="48.54983" lon="2.5831">
        <ele>78</ele>
        <time>2019-06-16T15:09:40Z</time>
      </trkpt>
      <trkpt lat="48.54946" lon="2.58297">
        <ele>78</ele>
        <time>2019-06-16T15:09:49Z</time>
      </trkpt>
      <trkpt lat="48.54929" lon="2.58291">
        <ele>78</ele>
        <time>2019-06-16T15:09:54Z</time>
      </trkpt>
      <trkpt lat="48.54926" lon="2.583">
        <ele>77</ele>
        <time>2019-06-16T15:09:57Z</time>
      </trkpt>
      <trkpt lat="48.5493" lon="2.58311">
        <ele>77</ele>
        <time>2019-06-16T15:10:01Z</time>
      </trkpt>
      <trkpt lat="48.5494" lon="2.58333">
        <ele>78</ele>
        <time>2019-06-16T15:10:07Z</time>
      </trkpt>
      <trkpt lat="48.54963" lon="2.58376">
        <ele>79</ele>
        <time>2019-06-16T15:10:17Z</time>
      </trkpt>
      <trkpt lat="48.5498" lon="2.58402">
        <ele>80</ele>
        <time>2019-06-16T15:10:23Z</time>
      </trkpt>
      <trkpt lat="48.54984" lon="2.58418">
        <ele>80</ele>
        <time>2019-06-16T15:10:28Z</time>
      </trkpt>
      <trkpt lat="48.54984" lon="2.58423">
        <ele>80</ele>
        <time>2019-06-16T15:10:30Z</time>
      </trkpt>
      <trkpt lat="48.54986" lon="2.58446">
        <ele>80</ele>
        <time>2019-06-16T15:10:40Z</time>
      </trkpt>
      <trkpt lat="48.5501" lon="2.58486">
        <ele>81</ele>
        <time>2019-06-16T15:10:49Z</time>
      </trkpt>
      <trkpt lat="48.55021" lon="2.58502">
        <ele>81</ele>
        <time>2019-06-16T15:10:52Z</time>
      </trkpt>
      <trkpt lat="48.55034" lon="2.58533">
        <ele>82</ele>
        <time>2019-06-16T15:10:58Z</time>
      </trkpt>
      <trkpt lat="48.55053" lon="2.5856">
        <ele>82</ele>
        <time>2019-06-16T15:11:03Z</time>
      </trkpt>
      <trkpt lat="48.55067" lon="2.58578">
        <ele>82</ele>
        <time>2019-06-16T15:11:06Z</time>
      </trkpt>
      <trkpt lat="48.55081" lon="2.58602">
        <ele>82</ele>
        <time>2019-06-16T15:11:10Z</time>
      </trkpt>
      <trkpt lat="48.55118" lon="2.58651">
        <ele>81</ele>
        <time>2019-06-16T15:11:20Z</time>
      </trkpt>
      <trkpt lat="48.55124" lon="2.58661">
        <ele>81</ele>
        <time>2019-06-16T15:11:22Z</time>
      </trkpt>
      <trkpt lat="48.55145" lon="2.58691">
        <ele>81</ele>
        <time>2019-06-16T15:11:31Z</time>
      </trkpt>
      <trkpt lat="48.55147" lon="2.58694">
        <ele>81</ele>
        <time>2019-06-16T15:11:33Z</time>
      </trkpt>
      <trkpt lat="48.55144" lon="2.58699">
        <ele>81</ele>
        <time>2019-06-16T15:11:36Z</time>
      </trkpt>
      <trkpt lat="48.55116" lon="2.5872">
        <ele>81</ele>
        <time>2019-06-16T15:11:45Z</time>
      </trkpt>
      <trkpt lat="48.55092" lon="2.58738">
        <ele>81</ele>
        <time>2019-06-16T15:11:53Z</time>
      </trkpt>
      <trkpt lat="48.55082" lon="2.58749">
        <ele>81</ele>
        <time>2019-06-16T15:11:56Z</time>
      </trkpt>
      <trkpt lat="48.55058" lon="2.58767">
        <ele>80</ele>
        <time>2019-06-16T15:12:05Z</time>
      </trkpt>
      <trkpt lat="48.55028" lon="2.58783">
        <ele>80</ele>
        <time>2019-06-16T15:12:13Z</time>
      </trkpt>
      <trkpt lat="48.54987" lon="2.58812">
        <ele>79</ele>
        <time>2019-06-16T15:12:23Z</time>
      </trkpt>
      <trkpt lat="48.54979" lon="2.58817">
        <ele>79</ele>
        <time>2019-06-16T15:12:25Z</time>
      </trkpt>
      <trkpt lat="48.54966" lon="2.58831">
        <ele>79</ele>
        <time>2019-06-16T15:12:30Z</time>
      </trkpt>
      <trkpt lat="48.54935" lon="2.58857">
        <ele>78</ele>
        <time>2019-06-16T15:12:38Z</time>
      </trkpt>
      <trkpt lat="48.54899" lon="2.58882">
        <ele>78</ele>
        <time>2019-06-16T15:12:47Z</time>
      </trkpt>
      <trkpt lat="48.54866" lon="2.58909">
        <ele>78</ele>
        <time>2019-06-16T15:12:56Z</time>
      </trkpt>
      <trkpt lat="48.54853" lon="2.58916">
        <ele>78</ele>
        <time>2019-06-16T15:12:59Z</time>
      </trkpt>
      <trkpt lat="48.54842" lon="2.58916">
        <ele>77</ele>
        <time>2019-06-16T15:13:03Z</time>
      </trkpt>
      <trkpt lat="48.5483" lon="2.58921">
        <ele>77</ele>
        <time>2019-06-16T15:13:07Z</time>
      </trkpt>
      <trkpt lat="48.54815" lon="2.58942">
        <ele>78</ele>
        <time>2019-06-16T15:13:13Z</time>
      </trkpt>
      <trkpt lat="48.54819" lon="2.59">
        <ele>77</ele>
        <time>2019-06-16T15:13:23Z</time>
      </trkpt>
      <trkpt lat="48.5482" lon="2.59015">
        <ele>77</ele>
        <time>2019-06-16T15:13:26Z</time>
      </trkpt>
      <trkpt lat="48.5483" lon="2.59044">
        <ele>77</ele>
        <time>2019-06-16T15:13:32Z</time>
      </trkpt>
      <trkpt lat="48.54834" lon="2.5906">
        <ele>78</ele>
        <time>2019-06-16T15:13:35Z</time>
      </trkpt>
      <trkpt lat="48.54844" lon="2.59107">
        <ele>79</ele>
        <time>2019-06-16T15:13:44Z</time>
      </trkpt>
      <trkpt lat="48.54847" lon="2.59117">
        <ele>79</ele>
        <time>2019-06-16T15:13:46Z</time>
      </trkpt>
      <trkpt lat="48.54861" lon="2.59152">
        <ele>79</ele>
        <time>2019-06-16T15:13:53Z</time>
      </trkpt>
      <trkpt lat="48.54875" lon="2.59178">
        <ele>78</ele>
        <time>2019-06-16T15:14:01Z</time>
      </trkpt>
      <trkpt lat="48.54885" lon="2.59206">
        <ele>78</ele>
        <time>2019-06-16T15:14:09Z</time>
      </trkpt>
      <trkpt lat="48.54891" lon="2.59235">
        <ele>78</ele>
        <time>2019-06-16T15:14:16Z</time>
      </trkpt>
      <trkpt lat="48.54888" lon="2.59282">
        <ele>76</ele>
        <time>2019-06-16T15:14:29Z</time>
      </trkpt>
      <trkpt lat="48.54872" lon="2.59269">
        <ele>76</ele>
        <time>2019-06-16T15:14:38Z</time>
      </trkpt>
      <trkpt lat="48.54856" lon="2.5926">
        <ele>76</ele>
        <time>2019-06-16T15:14:43Z</time>
      </trkpt>
      <trkpt lat="48.54802" lon="2.59256">
        <ele>75</ele>
        <time>2019-06-16T15:14:57Z</time>
      </trkpt>
      <trkpt lat="48.54785" lon="2.59258">
        <ele>75</ele>
        <time>2019-06-16T15:15:01Z</time>
      </trkpt>
      <trkpt lat="48.54724" lon="2.5925">
        <ele>76</ele>
        <time>2019-06-16T15:15:15Z</time>
      </trkpt>
      <trkpt lat="48.54704" lon="2.59256">
        <ele>76</ele>
        <time>2019-06-16T15:15:21Z</time>
      </trkpt>
      <trkpt lat="48.547" lon="2.5926">
        <ele>77</ele>
        <time>2019-06-16T15:15:23Z</time>
      </trkpt>
      <trkpt lat="48.54689" lon="2.59258">
        <ele>77</ele>
        <time>2019-06-16T15:15:28Z</time>
      </trkpt>
      <trkpt lat="48.5468" lon="2.59261">
        <ele>77</ele>
        <time>2019-06-16T15:15:31Z</time>
      </trkpt>
      <trkpt lat="48.5467" lon="2.59268">
        <ele>77</ele>
        <time>2019-06-16T15:15:36Z</time>
      </trkpt>
      <trkpt lat="48.54644" lon="2.59247">
        <ele>79</ele>
        <time>2019-06-16T15:15:46Z</time>
      </trkpt>
      <trkpt lat="48.54627" lon="2.59244">
        <ele>79</ele>
        <time>2019-06-16T15:15:51Z</time>
      </trkpt>
      <trkpt lat="48.54622" lon="2.59247">
        <ele>79</ele>
        <time>2019-06-16T15:15:53Z</time>
      </trkpt>
      <trkpt lat="48.54615" lon="2.59248">
        <ele>79</ele>
        <time>2019-06-16T15:15:56Z</time>
      </trkpt>
      <trkpt lat="48.5459" lon="2.5926">
        <ele>80</ele>
        <time>2019-06-16T15:16:06Z</time>
      </trkpt>
      <trkpt lat="48.54556" lon="2.59263">
        <ele>81</ele>
        <time>2019-06-16T15:16:18Z</time>
      </trkpt>
      <trkpt lat="48.54553" lon="2.59263">
        <ele>81</ele>
        <time>2019-06-16T15:16:19Z</time>
      </trkpt>
      <trkpt lat="48.54543" lon="2.59252">
        <ele>81</ele>
        <time>2019-06-16T15:16:25Z</time>
      </trkpt>
      <trkpt lat="48.54532" lon="2.59248">
        <ele>81</ele>
        <time>2019-06-16T15:16:29Z</time>
      </trkpt>
      <trkpt lat="48.54526" lon="2.59253">
        <ele>81</ele>
        <time>2019-06-16T15:16:32Z</time>
      </trkpt>
      <trkpt lat="48.54511" lon="2.59259">
        <ele>82</ele>
        <time>2019-06-16T15:16:39Z</time>
      </trkpt>
      <trkpt lat="48.5451" lon="2.59258">
        <ele>82</ele>
        <time>2019-06-16T15:16:40Z</time>
      </trkpt>
      <trkpt lat="48.54504" lon="2.59267">
        <ele>82</ele>
        <time>2019-06-16T15:16:44Z</time>
      </trkpt>
      <trkpt lat="48.545" lon="2.59295">
        <ele>82</ele>
        <time>2019-06-16T15:16:54Z</time>
      </trkpt>
      <trkpt lat="48.54497" lon="2.5931">
        <ele>83</ele>
        <time>2019-06-16T15:16:58Z</time>
      </trkpt>
      <trkpt lat="48.54492" lon="2.5933">
        <ele>82</ele>
        <time>2019-06-16T15:17:03Z</time>
      </trkpt>
      <trkpt lat="48.54494" lon="2.59349">
        <ele>83</ele>
        <time>2019-06-16T15:17:08Z</time>
      </trkpt>
      <trkpt lat="48.54486" lon="2.59391">
        <ele>85</ele>
        <time>2019-06-16T15:17:16Z</time>
      </trkpt>
      <trkpt lat="48.54495" lon="2.59423">
        <ele>87</ele>
        <time>2019-06-16T15:17:24Z</time>
      </trkpt>
      <trkpt lat="48.54499" lon="2.5943">
        <ele>86</ele>
        <time>2019-06-16T15:17:26Z</time>
      </trkpt>
      <trkpt lat="48.54502" lon="2.59447">
        <ele>86</ele>
        <time>2019-06-16T15:17:30Z</time>
      </trkpt>
      <trkpt lat="48.54503" lon="2.5948">
        <ele>86</ele>
        <time>2019-06-16T15:17:36Z</time>
      </trkpt>
      <trkpt lat="48.54513" lon="2.59507">
        <ele>85</ele>
        <time>2019-06-16T15:17:41Z</time>
      </trkpt>
      <trkpt lat="48.54519" lon="2.59543">
        <ele>83</ele>
        <time>2019-06-16T15:17:46Z</time>
      </trkpt>
      <trkpt lat="48.54535" lon="2.59582">
        <ele>83</ele>
        <time>2019-06-16T15:17:54Z</time>
      </trkpt>
      <trkpt lat="48.54539" lon="2.59593">
        <ele>83</ele>
        <time>2019-06-16T15:17:58Z</time>
      </trkpt>
      <trkpt lat="48.54541" lon="2.59606">
        <ele>83</ele>
        <time>2019-06-16T15:18:03Z</time>
      </trkpt>
      <trkpt lat="48.54541" lon="2.59619">
        <ele>83</ele>
        <time>2019-06-16T15:18:08Z</time>
      </trkpt>
      <trkpt lat="48.54539" lon="2.59643">
        <ele>83</ele>
        <time>2019-06-16T15:18:17Z</time>
      </trkpt>
      <trkpt lat="48.5455" lon="2.59662">
        <ele>83</ele>
        <time>2019-06-16T15:18:27Z</time>
      </trkpt>
      <trkpt lat="48.54547" lon="2.59669">
        <ele>84</ele>
        <time>2019-06-16T15:18:30Z</time>
      </trkpt>
      <trkpt lat="48.5455" lon="2.59684">
        <ele>84</ele>
        <time>2019-06-16T15:18:45Z</time>
      </trkpt>
      <trkpt lat="48.54541" lon="2.59695">
        <ele>84</ele>
        <time>2019-06-16T15:18:51Z</time>
      </trkpt>
      <trkpt lat="48.54532" lon="2.59694">
        <ele>84</ele>
        <time>2019-06-16T15:18:55Z</time>
      </trkpt>
      <trkpt lat="48.54521" lon="2.59694">
        <ele>84</ele>
        <time>2019-06-16T15:18:59Z</time>
      </trkpt>
      <trkpt lat="48.54509" lon="2.59713">
        <ele>84</ele>
        <time>2019-06-16T15:19:04Z</time>
      </trkpt>
      <trkpt lat="48.54503" lon="2.59748">
        <ele>85</ele>
        <time>2019-06-16T15:19:14Z</time>
      </trkpt>
      <trkpt lat="48.54503" lon="2.59753">
        <ele>85</ele>
        <time>2019-06-16T15:19:33Z</time>
      </trkpt>
      <trkpt lat="48.54504" lon="2.59758">
        <ele>85</ele>
        <time>2019-06-16T15:19:57Z</time>
      </trkpt>
      <trkpt lat="48.54502" lon="2.59763">
        <ele>85</ele>
        <time>2019-06-16T15:20:20Z</time>
      </trkpt>
      <trkpt lat="48.54501" lon="2.59766">
        <ele>84</ele>
        <time>2019-06-16T15:20:43Z</time>
      </trkpt>
      <trkpt lat="48.54502" lon="2.59767">
        <ele>84</ele>
        <time>2019-06-16T15:21:09Z</time>
      </trkpt>
      <trkpt lat="48.54502" lon="2.59771">
        <ele>84</ele>
        <time>2019-06-16T15:21:37Z</time>
      </trkpt>
      <trkpt lat="48.54504" lon="2.5977">
        <ele>84</ele>
        <time>2019-06-16T15:22:05Z</time>
      </trkpt>
      <trkpt lat="48.54504" lon="2.59769">
        <ele>84</ele>
        <time>2019-06-16T15:22:39Z</time>
      </trkpt>
      <trkpt lat="48.54503" lon="2.59769">
        <ele>84</ele>
        <time>2019-06-16T15:23:10Z</time>
      </trkpt>
      <trkpt lat="48.54503" lon="2.5977">
        <ele>84</ele>
        <time>2019-06-16T15:23:37Z</time>
      </trkpt>
      <trkpt lat="48.54503" lon="2.5977">
        <ele>84</ele>
        <time>2019-06-16T15:24:03Z</time>
      </trkpt>
      <trkpt lat="48.54503" lon="2.5977">
        <ele>84</ele>
        <time>2019-06-16T15:24:27Z</time>
      </trkpt>
      <trkpt lat="48.54499" lon="2.59771">
        <ele>85</ele>
        <time>2019-06-16T15:24:38Z</time>
      </trkpt>
      <trkpt lat="48.54497" lon="2.59773">
        <ele>85</ele>
        <time>2019-06-16T15:25:02Z</time>
      </trkpt>
      <trkpt lat="48.54498" lon="2.59771">
        <ele>85</ele>
        <time>2019-06-16T15:25:21Z</time>
      </trkpt>
      <trkpt lat="48.54498" lon="2.59769">
        <ele>85</ele>
        <time>2019-06-16T15:25:53Z</time>
      </trkpt>
      <trkpt lat="48.54502" lon="2.59762">
        <ele>85</ele>
        <time>2019-06-16T15:26:15Z</time>
      </trkpt>
      <trkpt lat="48.545" lon="2.59762">
        <ele>85</ele>
        <time>2019-06-16T15:26:39Z</time>
      </trkpt>
      <trkpt lat="48.54499" lon="2.59762">
        <ele>85</ele>
        <time>2019-06-16T15:27:04Z</time>
      </trkpt>
      <trkpt lat="48.54499" lon="2.59764">
        <ele>85</ele>
        <time>2019-06-16T15:27:12Z</time>
      </trkpt>
      <trkpt lat="48.54493" lon="2.59775">
        <ele>85</ele>
        <time>2019-06-16T15:27:19Z</time>
      </trkpt>
      <trkpt lat="48.5449" lon="2.59792">
        <ele>84</ele>
        <time>2019-06-16T15:27:25Z</time>
      </trkpt>
      <trkpt lat="48.54489" lon="2.59801">
        <ele>84</ele>
        <time>2019-06-16T15:27:28Z</time>
      </trkpt>
      <trkpt lat="48.54482" lon="2.59834">
        <ele>84</ele>
        <time>2019-06-16T15:27:38Z</time>
      </trkpt>
      <trkpt lat="48.54479" lon="2.59854">
        <ele>84</ele>
        <time>2019-06-16T15:27:43Z</time>
      </trkpt>
      <trkpt lat="48.54475" lon="2.59883">
        <ele>84</ele>
        <time>2019-06-16T15:27:50Z</time>
      </trkpt>
      <trkpt lat="48.5447" lon="2.59899">
        <ele>84</ele>
        <time>2019-06-16T15:27:56Z</time>
      </trkpt>
      <trkpt lat="48.54464" lon="2.59932">
        <ele>85</ele>
        <time>2019-06-16T15:28:06Z</time>
      </trkpt>
      <trkpt lat="48.54456" lon="2.59973">
        <ele>85</ele>
        <time>2019-06-16T15:28:16Z</time>
      </trkpt>
      <trkpt lat="48.54454" lon="2.59982">
        <ele>85</ele>
        <time>2019-06-16T15:28:18Z</time>
      </trkpt>
      <trkpt lat="48.54445" lon="2.6001">
        <ele>84</ele>
        <time>2019-06-16T15:28:25Z</time>
      </trkpt>
      <trkpt lat="48.54443" lon="2.60017">
        <ele>84</ele>
        <time>2019-06-16T15:28:27Z</time>
      </trkpt>
      <trkpt lat="48.54444" lon="2.6004">
        <ele>83</ele>
        <time>2019-06-16T15:28:33Z</time>
      </trkpt>
      <trkpt lat="48.5446" lon="2.60055">
        <ele>83</ele>
        <time>2019-06-16T15:28:38Z</time>
      </trkpt>
      <trkpt lat="48.54474" lon="2.60069">
        <ele>82</ele>
        <time>2019-06-16T15:28:42Z</time>
      </trkpt>
      <trkpt lat="48.54493" lon="2.60084">
        <ele>81</ele>
        <time>2019-06-16T15:28:47Z</time>
      </trkpt>
      <trkpt lat="48.54539" lon="2.60124">
        <ele>81</ele>
        <time>2019-06-16T15:28:58Z</time>
      </trkpt>
      <trkpt lat="48.54577" lon="2.6016">
        <ele>81</ele>
        <time>2019-06-16T15:29:07Z</time>
      </trkpt>
      <trkpt lat="48.54585" lon="2.60167">
        <ele>81</ele>
        <time>2019-06-16T15:29:09Z</time>
      </trkpt>
      <trkpt lat="48.54617" lon="2.60192">
        <ele>81</ele>
        <time>2019-06-16T15:29:16Z</time>
      </trkpt>
      <trkpt lat="48.54663" lon="2.60234">
        <ele>81</ele>
        <time>2019-06-16T15:29:26Z</time>
      </trkpt>
      <trkpt lat="48.54696" lon="2.60266">
        <ele>82</ele>
        <time>2019-06-16T15:29:35Z</time>
      </trkpt>
      <trkpt lat="48.54701" lon="2.6027">
        <ele>82</ele>
        <time>2019-06-16T15:29:36Z</time>
      </trkpt>
      <trkpt lat="48.54709" lon="2.60277">
        <ele>82</ele>
        <time>2019-06-16T15:29:38Z</time>
      </trkpt>
      <trkpt lat="48.54729" lon="2.60291">
        <ele>82</ele>
        <time>2019-06-16T15:29:43Z</time>
      </trkpt>
      <trkpt lat="48.54761" lon="2.60324">
        <ele>80</ele>
        <time>2019-06-16T15:29:51Z</time>
      </trkpt>
      <trkpt lat="48.5483" lon="2.60374">
        <ele>77</ele>
        <time>2019-06-16T15:30:06Z</time>
      </trkpt>
      <trkpt lat="48.54905" lon="2.60437">
        <ele>75</ele>
        <time>2019-06-16T15:30:22Z</time>
      </trkpt>
      <trkpt lat="48.5499" lon="2.60508">
        <ele>74</ele>
        <time>2019-06-16T15:30:39Z</time>
      </trkpt>
      <trkpt lat="48.55096" lon="2.606">
        <ele>74</ele>
        <time>2019-06-16T15:30:59Z</time>
      </trkpt>
      <trkpt lat="48.55151" lon="2.60671">
        <ele>76</ele>
        <time>2019-06-16T15:31:12Z</time>
      </trkpt>
      <trkpt lat="48.55169" lon="2.60698">
        <ele>77</ele>
        <time>2019-06-16T15:31:18Z</time>
      </trkpt>
      <trkpt lat="48.55201" lon="2.60754">
        <ele>78</ele>
        <time>2019-06-16T15:31:31Z</time>
      </trkpt>
      <trkpt lat="48.55215" lon="2.60771">
        <ele>78</ele>
        <time>2019-06-16T15:31:35Z</time>
      </trkpt>
      <trkpt lat="48.55236" lon="2.60783">
        <ele>78</ele>
        <time>2019-06-16T15:31:39Z</time>
      </trkpt>
      <trkpt lat="48.55252" lon="2.60812">
        <ele>79</ele>
        <time>2019-06-16T15:31:45Z</time>
      </trkpt>
      <trkpt lat="48.55275" lon="2.60825">
        <ele>79</ele>
        <time>2019-06-16T15:31:51Z</time>
      </trkpt>
      <trkpt lat="48.5531" lon="2.60842">
        <ele>80</ele>
        <time>2019-06-16T15:31:59Z</time>
      </trkpt>
      <trkpt lat="48.55346" lon="2.6086">
        <ele>80</ele>
        <time>2019-06-16T15:32:07Z</time>
      </trkpt>
      <trkpt lat="48.55354" lon="2.60877">
        <ele>80</ele>
        <time>2019-06-16T15:32:11Z</time>
      </trkpt>
      <trkpt lat="48.55346" lon="2.60929">
        <ele>81</ele>
        <time>2019-06-16T15:32:20Z</time>
      </trkpt>
      <trkpt lat="48.55341" lon="2.60961">
        <ele>82</ele>
        <time>2019-06-16T15:32:25Z</time>
      </trkpt>
      <trkpt lat="48.55337" lon="2.60986">
        <ele>82</ele>
        <time>2019-06-16T15:32:29Z</time>
      </trkpt>
      <trkpt lat="48.55333" lon="2.61012">
        <ele>82</ele>
        <time>2019-06-16T15:32:33Z</time>
      </trkpt>
      <trkpt lat="48.55332" lon="2.6103">
        <ele>83</ele>
        <time>2019-06-16T15:32:36Z</time>
      </trkpt>
      <trkpt lat="48.55331" lon="2.61054">
        <ele>83</ele>
        <time>2019-06-16T15:32:41Z</time>
      </trkpt>
      <trkpt lat="48.55341" lon="2.61064">
        <ele>82</ele>
        <time>2019-06-16T15:32:45Z</time>
      </trkpt>
      <trkpt lat="48.55367" lon="2.6109">
        <ele>83</ele>
        <time>2019-06-16T15:32:52Z</time>
      </trkpt>
      <trkpt lat="48.55382" lon="2.61104">
        <ele>83</ele>
        <time>2019-06-16T15:32:56Z</time>
      </trkpt>
      <trkpt lat="48.55407" lon="2.61125">
        <ele>83</ele>
        <time>2019-06-16T15:33:03Z</time>
      </trkpt>
      <trkpt lat="48.55428" lon="2.61134">
        <ele>84</ele>
        <time>2019-06-16T15:33:08Z</time>
      </trkpt>
      <trkpt lat="48.55468" lon="2.61147">
        <ele>85</ele>
        <time>2019-06-16T15:33:17Z</time>
      </trkpt>
      <trkpt lat="48.55479" lon="2.61148">
        <ele>85</ele>
        <time>2019-06-16T15:33:19Z</time>
      </trkpt>
      <trkpt lat="48.5549" lon="2.61146">
        <ele>85</ele>
        <time>2019-06-16T15:33:21Z</time>
      </trkpt>
      <trkpt lat="48.55513" lon="2.61146">
        <ele>85</ele>
        <time>2019-06-16T15:33:26Z</time>
      </trkpt>
      <trkpt lat="48.55525" lon="2.61146">
        <ele>85</ele>
        <time>2019-06-16T15:33:29Z</time>
      </trkpt>
      <trkpt lat="48.55555" lon="2.61153">
        <ele>85</ele>
        <time>2019-06-16T15:33:37Z</time>
      </trkpt>
      <trkpt lat="48.55559" lon="2.61156">
        <ele>85</ele>
        <time>2019-06-16T15:33:38Z</time>
      </trkpt>
      <trkpt lat="48.55575" lon="2.61164">
        <ele>86</ele>
        <time>2019-06-16T15:33:42Z</time>
      </trkpt>
      <trkpt lat="48.55583" lon="2.61197">
        <ele>86</ele>
        <time>2019-06-16T15:33:49Z</time>
      </trkpt>
      <trkpt lat="48.55583" lon="2.61203">
        <ele>86</ele>
        <time>2019-06-16T15:33:50Z</time>
      </trkpt>
      <trkpt lat="48.55582" lon="2.61214">
        <ele>86</ele>
        <time>2019-06-16T15:33:52Z</time>
      </trkpt>
      <trkpt lat="48.55578" lon="2.61239">
        <ele>86</ele>
        <time>2019-06-16T15:33:56Z</time>
      </trkpt>
      <trkpt lat="48.55574" lon="2.61282">
        <ele>85</ele>
        <time>2019-06-16T15:34:03Z</time>
      </trkpt>
      <trkpt lat="48.55561" lon="2.6129">
        <ele>85</ele>
        <time>2019-06-16T15:34:10Z</time>
      </trkpt>
      <trkpt lat="48.55558" lon="2.61301">
        <ele>85</ele>
        <time>2019-06-16T15:34:13Z</time>
      </trkpt>
      <trkpt lat="48.55534" lon="2.61314">
        <ele>85</ele>
        <time>2019-06-16T15:34:21Z</time>
      </trkpt>
      <trkpt lat="48.55516" lon="2.61314">
        <ele>84</ele>
        <time>2019-06-16T15:34:25Z</time>
      </trkpt>
      <trkpt lat="48.55499" lon="2.6131">
        <ele>84</ele>
        <time>2019-06-16T15:34:29Z</time>
      </trkpt>
      <trkpt lat="48.55445" lon="2.61307">
        <ele>84</ele>
        <time>2019-06-16T15:34:40Z</time>
      </trkpt>
      <trkpt lat="48.55427" lon="2.61304">
        <ele>84</ele>
        <time>2019-06-16T15:34:44Z</time>
      </trkpt>
      <trkpt lat="48.55418" lon="2.61302">
        <ele>84</ele>
        <time>2019-06-16T15:34:46Z</time>
      </trkpt>
      <trkpt lat="48.55398" lon="2.613">
        <ele>83</ele>
        <time>2019-06-16T15:34:50Z</time>
      </trkpt>
      <trkpt lat="48.55352" lon="2.61297">
        <ele>83</ele>
        <time>2019-06-16T15:34:59Z</time>
      </trkpt>
      <trkpt lat="48.55332" lon="2.61296">
        <ele>84</ele>
        <time>2019-06-16T15:35:03Z</time>
      </trkpt>
      <trkpt lat="48.55311" lon="2.61295">
        <ele>85</ele>
        <time>2019-06-16T15:35:08Z</time>
      </trkpt>
      <trkpt lat="48.55302" lon="2.61316">
        <ele>85</ele>
        <time>2019-06-16T15:35:14Z</time>
      </trkpt>
      <trkpt lat="48.55301" lon="2.61329">
        <ele>85</ele>
        <time>2019-06-16T15:35:16Z</time>
      </trkpt>
      <trkpt lat="48.55298" lon="2.6139">
        <ele>83</ele>
        <time>2019-06-16T15:35:25Z</time>
      </trkpt>
      <trkpt lat="48.55296" lon="2.61424">
        <ele>82</ele>
        <time>2019-06-16T15:35:30Z</time>
      </trkpt>
      <trkpt lat="48.55291" lon="2.61448">
        <ele>82</ele>
        <time>2019-06-16T15:35:34Z</time>
      </trkpt>
      <trkpt lat="48.55282" lon="2.61459">
        <ele>82</ele>
        <time>2019-06-16T15:35:37Z</time>
      </trkpt>
      <trkpt lat="48.55257" lon="2.61478">
        <ele>83</ele>
        <time>2019-06-16T15:35:46Z</time>
      </trkpt>
      <trkpt lat="48.55245" lon="2.61486">
        <ele>84</ele>
        <time>2019-06-16T15:35:49Z</time>
      </trkpt>
      <trkpt lat="48.55231" lon="2.61519">
        <ele>85</ele>
        <time>2019-06-16T15:35:55Z</time>
      </trkpt>
      <trkpt lat="48.55227" lon="2.61555">
        <ele>86</ele>
        <time>2019-06-16T15:36:02Z</time>
      </trkpt>
      <trkpt lat="48.55225" lon="2.61602">
        <ele>87</ele>
        <time>2019-06-16T15:36:12Z</time>
      </trkpt>
      <trkpt lat="48.55222" lon="2.61616">
        <ele>87</ele>
        <time>2019-06-16T15:36:15Z</time>
      </trkpt>
      <trkpt lat="48.55219" lon="2.61668">
        <ele>89</ele>
        <time>2019-06-16T15:36:25Z</time>
      </trkpt>
      <trkpt lat="48.55197" lon="2.61703">
        <ele>90</ele>
        <time>2019-06-16T15:36:36Z</time>
      </trkpt>
      <trkpt lat="48.55178" lon="2.61729">
        <ele>91</ele>
        <time>2019-06-16T15:36:45Z</time>
      </trkpt>
      <trkpt lat="48.55176" lon="2.61733">
        <ele>91</ele>
        <time>2019-06-16T15:36:46Z</time>
      </trkpt>
      <trkpt lat="48.55155" lon="2.61764">
        <ele>93</ele>
        <time>2019-06-16T15:36:56Z</time>
      </trkpt>
      <trkpt lat="48.55146" lon="2.61781">
        <ele>94</ele>
        <time>2019-06-16T15:37:02Z</time>
      </trkpt>
      <trkpt lat="48.5514" lon="2.6177">
        <ele>94</ele>
        <time>2019-06-16T15:37:06Z</time>
      </trkpt>
      <trkpt lat="48.55142" lon="2.61734">
        <ele>92</ele>
        <time>2019-06-16T15:37:13Z</time>
      </trkpt>
      <trkpt lat="48.55144" lon="2.61695">
        <ele>92</ele>
        <time>2019-06-16T15:37:21Z</time>
      </trkpt>
      <trkpt lat="48.55143" lon="2.61666">
        <ele>90</ele>
        <time>2019-06-16T15:37:26Z</time>
      </trkpt>
      <trkpt lat="48.55138" lon="2.61638">
        <ele>89</ele>
        <time>2019-06-16T15:37:30Z</time>
      </trkpt>
      <trkpt lat="48.55135" lon="2.61605">
        <ele>89</ele>
        <time>2019-06-16T15:37:34Z</time>
      </trkpt>
      <trkpt lat="48.55138" lon="2.61588">
        <ele>89</ele>
        <time>2019-06-16T15:37:36Z</time>
      </trkpt>
      <trkpt lat="48.55156" lon="2.61549">
        <ele>88</ele>
        <time>2019-06-16T15:37:41Z</time>
      </trkpt>
      <trkpt lat="48.5516" lon="2.61523">
        <ele>87</ele>
        <time>2019-06-16T15:37:44Z</time>
      </trkpt>
      <trkpt lat="48.55166" lon="2.61498">
        <ele>87</ele>
        <time>2019-06-16T15:37:47Z</time>
      </trkpt>
      <trkpt lat="48.55161" lon="2.61442">
        <ele>84</ele>
        <time>2019-06-16T15:37:54Z</time>
      </trkpt>
      <trkpt lat="48.5516" lon="2.61426">
        <ele>84</ele>
        <time>2019-06-16T15:37:56Z</time>
      </trkpt>
      <trkpt lat="48.55143" lon="2.6139">
        <ele>84</ele>
        <time>2019-06-16T15:38:02Z</time>
      </trkpt>
      <trkpt lat="48.55132" lon="2.61369">
        <ele>84</ele>
        <time>2019-06-16T15:38:06Z</time>
      </trkpt>
      <trkpt lat="48.55118" lon="2.61349">
        <ele>84</ele>
        <time>2019-06-16T15:38:10Z</time>
      </trkpt>
      <trkpt lat="48.55104" lon="2.61337">
        <ele>84</ele>
        <time>2019-06-16T15:38:14Z</time>
      </trkpt>
      <trkpt lat="48.55094" lon="2.61323">
        <ele>84</ele>
        <time>2019-06-16T15:38:18Z</time>
      </trkpt>
      <trkpt lat="48.55061" lon="2.61288">
        <ele>80</ele>
        <time>2019-06-16T15:38:27Z</time>
      </trkpt>
      <trkpt lat="48.55047" lon="2.61306">
        <ele>80</ele>
        <time>2019-06-16T15:38:33Z</time>
      </trkpt>
      <trkpt lat="48.55038" lon="2.61343">
        <ele>80</ele>
        <time>2019-06-16T15:38:41Z</time>
      </trkpt>
      <trkpt lat="48.55035" lon="2.6137">
        <ele>80</ele>
        <time>2019-06-16T15:38:46Z</time>
      </trkpt>
      <trkpt lat="48.5504" lon="2.61425">
        <ele>81</ele>
        <time>2019-06-16T15:38:56Z</time>
      </trkpt>
      <trkpt lat="48.55034" lon="2.61442">
        <ele>81</ele>
        <time>2019-06-16T15:39:00Z</time>
      </trkpt>
      <trkpt lat="48.5503" lon="2.61451">
        <ele>81</ele>
        <time>2019-06-16T15:39:02Z</time>
      </trkpt>
      <trkpt lat="48.5503" lon="2.61472">
        <ele>81</ele>
        <time>2019-06-16T15:39:07Z</time>
      </trkpt>
      <trkpt lat="48.55028" lon="2.61501">
        <ele>82</ele>
        <time>2019-06-16T15:39:13Z</time>
      </trkpt>
      <trkpt lat="48.55028" lon="2.61516">
        <ele>82</ele>
        <time>2019-06-16T15:39:16Z</time>
      </trkpt>
      <trkpt lat="48.55029" lon="2.61533">
        <ele>82</ele>
        <time>2019-06-16T15:39:20Z</time>
      </trkpt>
      <trkpt lat="48.55026" lon="2.61566">
        <ele>81</ele>
        <time>2019-06-16T15:39:27Z</time>
      </trkpt>
      <trkpt lat="48.55024" lon="2.61611">
        <ele>82</ele>
        <time>2019-06-16T15:39:36Z</time>
      </trkpt>
      <trkpt lat="48.55025" lon="2.61616">
        <ele>82</ele>
        <time>2019-06-16T15:39:37Z</time>
      </trkpt>
      <trkpt lat="48.55031" lon="2.61639">
        <ele>83</ele>
        <time>2019-06-16T15:39:46Z</time>
      </trkpt>
      <trkpt lat="48.55024" lon="2.61668">
        <ele>84</ele>
        <time>2019-06-16T15:39:54Z</time>
      </trkpt>
      <trkpt lat="48.5502" lon="2.61708">
        <ele>85</ele>
        <time>2019-06-16T15:40:01Z</time>
      </trkpt>
      <trkpt lat="48.55021" lon="2.61738">
        <ele>86</ele>
        <time>2019-06-16T15:40:06Z</time>
      </trkpt>
      <trkpt lat="48.55029" lon="2.61788">
        <ele>89</ele>
        <time>2019-06-16T15:40:16Z</time>
      </trkpt>
      <trkpt lat="48.55026" lon="2.61799">
        <ele>89</ele>
        <time>2019-06-16T15:40:20Z</time>
      </trkpt>
      <trkpt lat="48.55022" lon="2.61809">
        <ele>88</ele>
        <time>2019-06-16T15:40:22Z</time>
      </trkpt>
      <trkpt lat="48.55015" lon="2.61828">
        <ele>88</ele>
        <time>2019-06-16T15:40:26Z</time>
      </trkpt>
      <trkpt lat="48.55014" lon="2.61888">
        <ele>88</ele>
        <time>2019-06-16T15:40:36Z</time>
      </trkpt>
      <trkpt lat="48.55015" lon="2.61917">
        <ele>86</ele>
        <time>2019-06-16T15:40:41Z</time>
      </trkpt>
      <trkpt lat="48.55018" lon="2.61964">
        <ele>86</ele>
        <time>2019-06-16T15:40:48Z</time>
      </trkpt>
      <trkpt lat="48.55019" lon="2.61992">
        <ele>85</ele>
        <time>2019-06-16T15:40:52Z</time>
      </trkpt>
      <trkpt lat="48.55035" lon="2.62002">
        <ele>85</ele>
        <time>2019-06-16T15:40:58Z</time>
      </trkpt>
      <trkpt lat="48.5506" lon="2.62004">
        <ele>87</ele>
        <time>2019-06-16T15:41:04Z</time>
      </trkpt>
      <trkpt lat="48.55096" lon="2.62009">
        <ele>90</ele>
        <time>2019-06-16T15:41:14Z</time>
      </trkpt>
      <trkpt lat="48.55123" lon="2.62012">
        <ele>90</ele>
        <time>2019-06-16T15:41:23Z</time>
      </trkpt>
      <trkpt lat="48.55151" lon="2.62016">
        <ele>91</ele>
        <time>2019-06-16T15:41:30Z</time>
      </trkpt>
      <trkpt lat="48.55185" lon="2.62016">
        <ele>91</ele>
        <time>2019-06-16T15:41:37Z</time>
      </trkpt>
      <trkpt lat="48.55201" lon="2.62013">
        <ele>91</ele>
        <time>2019-06-16T15:41:41Z</time>
      </trkpt>
      <trkpt lat="48.55218" lon="2.61996">
        <ele>91</ele>
        <time>2019-06-16T15:41:45Z</time>
      </trkpt>
      <trkpt lat="48.55229" lon="2.61963">
        <ele>91</ele>
        <time>2019-06-16T15:41:50Z</time>
      </trkpt>
      <trkpt lat="48.55234" lon="2.61948">
        <ele>91</ele>
        <time>2019-06-16T15:41:52Z</time>
      </trkpt>
      <trkpt lat="48.55247" lon="2.61919">
        <ele>90</ele>
        <time>2019-06-16T15:41:56Z</time>
      </trkpt>
      <trkpt lat="48.55263" lon="2.6187">
        <ele>88</ele>
        <time>2019-06-16T15:42:02Z</time>
      </trkpt>
      <trkpt lat="48.55278" lon="2.61834">
        <ele>88</ele>
        <time>2019-06-16T15:42:07Z</time>
      </trkpt>
      <trkpt lat="48.553" lon="2.61758">
        <ele>85</ele>
        <time>2019-06-16T15:42:19Z</time>
      </trkpt>
      <trkpt lat="48.55314" lon="2.6174">
        <ele>84</ele>
        <time>2019-06-16T15:42:25Z</time>
      </trkpt>
      <trkpt lat="48.55321" lon="2.6173">
        <ele>84</ele>
        <time>2019-06-16T15:42:30Z</time>
      </trkpt>
      <trkpt lat="48.5536" lon="2.61743">
        <ele>83</ele>
        <time>2019-06-16T15:42:41Z</time>
      </trkpt>
      <trkpt lat="48.55395" lon="2.61739">
        <ele>83</ele>
        <time>2019-06-16T15:42:50Z</time>
      </trkpt>
      <trkpt lat="48.55427" lon="2.61738">
        <ele>84</ele>
        <time>2019-06-16T15:42:58Z</time>
      </trkpt>
      <trkpt lat="48.55436" lon="2.6173">
        <ele>84</ele>
        <time>2019-06-16T15:43:00Z</time>
      </trkpt>
      <trkpt lat="48.5545" lon="2.61708">
        <ele>84</ele>
        <time>2019-06-16T15:43:04Z</time>
      </trkpt>
      <trkpt lat="48.55457" lon="2.61699">
        <ele>84</ele>
        <time>2019-06-16T15:43:06Z</time>
      </trkpt>
      <trkpt lat="48.55471" lon="2.61654">
        <ele>83</ele>
        <time>2019-06-16T15:43:15Z</time>
      </trkpt>
      <trkpt lat="48.55473" lon="2.6165">
        <ele>83</ele>
        <time>2019-06-16T15:43:16Z</time>
      </trkpt>
      <trkpt lat="48.55484" lon="2.61641">
        <ele>83</ele>
        <time>2019-06-16T15:43:19Z</time>
      </trkpt>
      <trkpt lat="48.55504" lon="2.61634">
        <ele>85</ele>
        <time>2019-06-16T15:43:24Z</time>
      </trkpt>
      <trkpt lat="48.5552" lon="2.61637">
        <ele>85</ele>
        <time>2019-06-16T15:43:28Z</time>
      </trkpt>
      <trkpt lat="48.55531" lon="2.61642">
        <ele>85</ele>
        <time>2019-06-16T15:43:31Z</time>
      </trkpt>
      <trkpt lat="48.55538" lon="2.61659">
        <ele>85</ele>
        <time>2019-06-16T15:43:35Z</time>
      </trkpt>
      <trkpt lat="48.55542" lon="2.6167">
        <ele>86</ele>
        <time>2019-06-16T15:43:37Z</time>
      </trkpt>
      <trkpt lat="48.55554" lon="2.61724">
        <ele>86</ele>
        <time>2019-06-16T15:43:47Z</time>
      </trkpt>
      <trkpt lat="48.55567" lon="2.6174">
        <ele>87</ele>
        <time>2019-06-16T15:43:51Z</time>
      </trkpt>
      <trkpt lat="48.55603" lon="2.61748">
        <ele>86</ele>
        <time>2019-06-16T15:44:00Z</time>
      </trkpt>
      <trkpt lat="48.55611" lon="2.61752">
        <ele>87</ele>
        <time>2019-06-16T15:44:02Z</time>
      </trkpt>
      <trkpt lat="48.55631" lon="2.61716">
        <ele>86</ele>
        <time>2019-06-16T15:44:11Z</time>
      </trkpt>
      <trkpt lat="48.55633" lon="2.61702">
        <ele>86</ele>
        <time>2019-06-16T15:44:13Z</time>
      </trkpt>
      <trkpt lat="48.55641" lon="2.61663">
        <ele>85</ele>
        <time>2019-06-16T15:44:19Z</time>
      </trkpt>
      <trkpt lat="48.55646" lon="2.61619">
        <ele>85</ele>
        <time>2019-06-16T15:44:25Z</time>
      </trkpt>
      <trkpt lat="48.55652" lon="2.61591">
        <ele>85</ele>
        <time>2019-06-16T15:44:29Z</time>
      </trkpt>
      <trkpt lat="48.55654" lon="2.61577">
        <ele>84</ele>
        <time>2019-06-16T15:44:31Z</time>
      </trkpt>
      <trkpt lat="48.55655" lon="2.61562">
        <ele>84</ele>
        <time>2019-06-16T15:44:33Z</time>
      </trkpt>
      <trkpt lat="48.55665" lon="2.61547">
        <ele>84</ele>
        <time>2019-06-16T15:44:37Z</time>
      </trkpt>
      <trkpt lat="48.55673" lon="2.6155">
        <ele>83</ele>
        <time>2019-06-16T15:44:39Z</time>
      </trkpt>
      <trkpt lat="48.55689" lon="2.61553">
        <ele>83</ele>
        <time>2019-06-16T15:44:43Z</time>
      </trkpt>
      <trkpt lat="48.55702" lon="2.61558">
        <ele>83</ele>
        <time>2019-06-16T15:44:46Z</time>
      </trkpt>
      <trkpt lat="48.55716" lon="2.61562">
        <ele>84</ele>
        <time>2019-06-16T15:44:49Z</time>
      </trkpt>
      <trkpt lat="48.55741" lon="2.61563">
        <ele>84</ele>
        <time>2019-06-16T15:44:54Z</time>
      </trkpt>
      <trkpt lat="48.55772" lon="2.6156">
        <ele>84</ele>
        <time>2019-06-16T15:45:00Z</time>
      </trkpt>
      <trkpt lat="48.5579" lon="2.61535">
        <ele>84</ele>
        <time>2019-06-16T15:45:05Z</time>
      </trkpt>
      <trkpt lat="48.55797" lon="2.61506">
        <ele>83</ele>
        <time>2019-06-16T15:45:09Z</time>
      </trkpt>
      <trkpt lat="48.55801" lon="2.61436">
        <ele>82</ele>
        <time>2019-06-16T15:45:18Z</time>
      </trkpt>
      <trkpt lat="48.55803" lon="2.61384">
        <ele>83</ele>
        <time>2019-06-16T15:45:25Z</time>
      </trkpt>
      <trkpt lat="48.55802" lon="2.61355">
        <ele>84</ele>
        <time>2019-06-16T15:45:29Z</time>
      </trkpt>
      <trkpt lat="48.55802" lon="2.61331">
        <ele>85</ele>
        <time>2019-06-16T15:45:33Z</time>
      </trkpt>
      <trkpt lat="48.55817" lon="2.61313">
        <ele>85</ele>
        <time>2019-06-16T15:45:40Z</time>
      </trkpt>
      <trkpt lat="48.55836" lon="2.61318">
        <ele>86</ele>
        <time>2019-06-16T15:45:46Z</time>
      </trkpt>
      <trkpt lat="48.55867" lon="2.61359">
        <ele>86</ele>
        <time>2019-06-16T15:45:54Z</time>
      </trkpt>
      <trkpt lat="48.55877" lon="2.61374">
        <ele>86</ele>
        <time>2019-06-16T15:45:59Z</time>
      </trkpt>
      <trkpt lat="48.55903" lon="2.6143">
        <ele>86</ele>
        <time>2019-06-16T15:46:13Z</time>
      </trkpt>
      <trkpt lat="48.55921" lon="2.61486">
        <ele>88</ele>
        <time>2019-06-16T15:46:24Z</time>
      </trkpt>
      <trkpt lat="48.55934" lon="2.61546">
        <ele>87</ele>
        <time>2019-06-16T15:46:36Z</time>
      </trkpt>
      <trkpt lat="48.55944" lon="2.61553">
        <ele>87</ele>
        <time>2019-06-16T15:46:40Z</time>
      </trkpt>
      <trkpt lat="48.55963" lon="2.61543">
        <ele>88</ele>
        <time>2019-06-16T15:46:46Z</time>
      </trkpt>
      <trkpt lat="48.55979" lon="2.6157">
        <ele>88</ele>
        <time>2019-06-16T15:46:55Z</time>
      </trkpt>
      <trkpt lat="48.55978" lon="2.61589">
        <ele>87</ele>
        <time>2019-06-16T15:46:58Z</time>
      </trkpt>
      <trkpt lat="48.55982" lon="2.61632">
        <ele>87</ele>
        <time>2019-06-16T15:47:05Z</time>
      </trkpt>
      <trkpt lat="48.55991" lon="2.61653">
        <ele>87</ele>
        <time>2019-06-16T15:47:09Z</time>
      </trkpt>
      <trkpt lat="48.56007" lon="2.61719">
        <ele>87</ele>
        <time>2019-06-16T15:47:22Z</time>
      </trkpt>
      <trkpt lat="48.56007" lon="2.6172">
        <ele>87</ele>
        <time>2019-06-16T15:47:24Z</time>
      </trkpt>
      <trkpt lat="48.56017" lon="2.61759">
        <ele>87</ele>
        <time>2019-06-16T15:47:35Z</time>
      </trkpt>
      <trkpt lat="48.56027" lon="2.61782">
        <ele>87</ele>
        <time>2019-06-16T15:47:41Z</time>
      </trkpt>
      <trkpt lat="48.56038" lon="2.61827">
        <ele>88</ele>
        <time>2019-06-16T15:47:51Z</time>
      </trkpt>
      <trkpt lat="48.56038" lon="2.61831">
        <ele>88</ele>
        <time>2019-06-16T15:47:52Z</time>
      </trkpt>
      <trkpt lat="48.56053" lon="2.61865">
        <ele>87</ele>
        <time>2019-06-16T15:48:00Z</time>
      </trkpt>
      <trkpt lat="48.56054" lon="2.61881">
        <ele>87</ele>
        <time>2019-06-16T15:48:03Z</time>
      </trkpt>
      <trkpt lat="48.56042" lon="2.61921">
        <ele>86</ele>
        <time>2019-06-16T15:48:12Z</time>
      </trkpt>
      <trkpt lat="48.56042" lon="2.61934">
        <ele>86</ele>
        <time>2019-06-16T15:48:21Z</time>
      </trkpt>
      <trkpt lat="48.56044" lon="2.61935">
        <ele>86</ele>
        <time>2019-06-16T15:48:49Z</time>
      </trkpt>
      <trkpt lat="48.56045" lon="2.61934">
        <ele>86</ele>
        <time>2019-06-16T15:49:23Z</time>
      </trkpt>
      <trkpt lat="48.56045" lon="2.61934">
        <ele>86</ele>
        <time>2019-06-16T15:49:48Z</time>
      </trkpt>
      <trkpt lat="48.56045" lon="2.61936">
        <ele>86</ele>
        <time>2019-06-16T15:50:16Z</time>
      </trkpt>
      <trkpt lat="48.56046" lon="2.61936">
        <ele>86</ele>
        <time>2019-06-16T15:50:44Z</time>
      </trkpt>
      <trkpt lat="48.56045" lon="2.61938">
        <ele>86</ele>
        <time>2019-06-16T15:51:10Z</time>
      </trkpt>
      <trkpt lat="48.56044" lon="2.61938">
        <ele>86</ele>
        <time>2019-06-16T15:51:38Z</time>
      </trkpt>
      <trkpt lat="48.56045" lon="2.61939">
        <ele>86</ele>
        <time>2019-06-16T15:52:08Z</time>
      </trkpt>
      <trkpt lat="48.56045" lon="2.6194">
        <ele>86</ele>
        <time>2019-06-16T15:52:43Z</time>
      </trkpt>
      <trkpt lat="48.56047" lon="2.61942">
        <ele>86</ele>
        <time>2019-06-16T15:53:08Z</time>
      </trkpt>
      <trkpt lat="48.56047" lon="2.61942">
        <ele>86</ele>
        <time>2019-06-16T15:53:33Z</time>
      </trkpt>
      <trkpt lat="48.56047" lon="2.61942">
        <ele>86</ele>
        <time>2019-06-16T15:54:02Z</time>
      </trkpt>
      <trkpt lat="48.56047" lon="2.61943">
        <ele>86</ele>
        <time>2019-06-16T15:54:26Z</time>
      </trkpt>
      <trkpt lat="48.56046" lon="2.61943">
        <ele>86</ele>
        <time>2019-06-16T15:54:50Z</time>
      </trkpt>
      <trkpt lat="48.56046" lon="2.6194">
        <ele>86</ele>
        <time>2019-06-16T15:55:19Z</time>
      </trkpt>
      <trkpt lat="48.56046" lon="2.6194">
        <ele>86</ele>
        <time>2019-06-16T15:55:45Z</time>
      </trkpt>
      <trkpt lat="48.56046" lon="2.6194">
        <ele>86</ele>
        <time>2019-06-16T15:55:46Z</time>
      </trkpt>
      <trkpt lat="48.56045" lon="2.61942">
        <ele>86</ele>
        <time>2019-06-16T15:55:48Z</time>
      </trkpt>
      <trkpt lat="48.56041" lon="2.61953">
        <ele>86</ele>
        <time>2019-06-16T15:55:52Z</time>
      </trkpt>
      <trkpt lat="48.56027" lon="2.62005">
        <ele>87</ele>
        <time>2019-06-16T15:56:03Z</time>
      </trkpt>
      <trkpt lat="48.56013" lon="2.62045">
        <ele>88</ele>
        <time>2019-06-16T15:56:13Z</time>
      </trkpt>
      <trkpt lat="48.56005" lon="2.62052">
        <ele>88</ele>
        <time>2019-06-16T15:56:22Z</time>
      </trkpt>
      <trkpt lat="48.56003" lon="2.62056">
        <ele>88</ele>
        <time>2019-06-16T15:56:24Z</time>
      </trkpt>
      <trkpt lat="48.56" lon="2.62059">
        <ele>89</ele>
        <time>2019-06-16T15:56:27Z</time>
      </trkpt>
      <trkpt lat="48.55998" lon="2.62066">
        <ele>90</ele>
        <time>2019-06-16T15:56:35Z</time>
      </trkpt>
      <trkpt lat="48.55994" lon="2.6208">
        <ele>90</ele>
        <time>2019-06-16T15:56:46Z</time>
      </trkpt>
      <trkpt lat="48.55994" lon="2.6208">
        <ele>90</ele>
        <time>2019-06-16T15:56:47Z</time>
      </trkpt>
      <trkpt lat="48.55974" lon="2.621">
        <ele>92</ele>
        <time>2019-06-16T15:56:58Z</time>
      </trkpt>
      <trkpt lat="48.55965" lon="2.62105">
        <ele>92</ele>
        <time>2019-06-16T15:57:02Z</time>
      </trkpt>
      <trkpt lat="48.55958" lon="2.62114">
        <ele>92</ele>
        <time>2019-06-16T15:57:07Z</time>
      </trkpt>
      <trkpt lat="48.55934" lon="2.62118">
        <ele>92</ele>
        <time>2019-06-16T15:57:15Z</time>
      </trkpt>
      <trkpt lat="48.55926" lon="2.62129">
        <ele>93</ele>
        <time>2019-06-16T15:57:19Z</time>
      </trkpt>
      <trkpt lat="48.55902" lon="2.62168">
        <ele>94</ele>
        <time>2019-06-16T15:57:29Z</time>
      </trkpt>
      <trkpt lat="48.55898" lon="2.62176">
        <ele>94</ele>
        <time>2019-06-16T15:57:33Z</time>
      </trkpt>
      <trkpt lat="48.5588" lon="2.62196">
        <ele>93</ele>
        <time>2019-06-16T15:57:41Z</time>
      </trkpt>
      <trkpt lat="48.55859" lon="2.62231">
        <ele>93</ele>
        <time>2019-06-16T15:57:50Z</time>
      </trkpt>
      <trkpt lat="48.55846" lon="2.62258">
        <ele>92</ele>
        <time>2019-06-16T15:57:56Z</time>
      </trkpt>
      <trkpt lat="48.55839" lon="2.62279">
        <ele>93</ele>
        <time>2019-06-16T15:58:00Z</time>
      </trkpt>
      <trkpt lat="48.5583" lon="2.62325">
        <ele>91</ele>
        <time>2019-06-16T15:58:09Z</time>
      </trkpt>
      <trkpt lat="48.55815" lon="2.62371">
        <ele>90</ele>
        <time>2019-06-16T15:58:18Z</time>
      </trkpt>
      <trkpt lat="48.55814" lon="2.62377">
        <ele>90</ele>
        <time>2019-06-16T15:58:19Z</time>
      </trkpt>
      <trkpt lat="48.55797" lon="2.62412">
        <ele>90</ele>
        <time>2019-06-16T15:58:26Z</time>
      </trkpt>
      <trkpt lat="48.55791" lon="2.6244">
        <ele>90</ele>
        <time>2019-06-16T15:58:34Z</time>
      </trkpt>
      <trkpt lat="48.55807" lon="2.62451">
        <ele>90</ele>
        <time>2019-06-16T15:58:43Z</time>
      </trkpt>
      <trkpt lat="48.55834" lon="2.62461">
        <ele>91</ele>
        <time>2019-06-16T15:58:53Z</time>
      </trkpt>
      <trkpt lat="48.5584" lon="2.62463">
        <ele>91</ele>
        <time>2019-06-16T15:58:55Z</time>
      </trkpt>
      <trkpt lat="48.55868" lon="2.62475">
        <ele>92</ele>
        <time>2019-06-16T15:59:05Z</time>
      </trkpt>
      <trkpt lat="48.5588" lon="2.62481">
        <ele>92</ele>
        <time>2019-06-16T15:59:10Z</time>
      </trkpt>
      <trkpt lat="48.55887" lon="2.62482">
        <ele>93</ele>
        <time>2019-06-16T15:59:12Z</time>
      </trkpt>
      <trkpt lat="48.55895" lon="2.62485">
        <ele>93</ele>
        <time>2019-06-16T15:59:16Z</time>
      </trkpt>
      <trkpt lat="48.559" lon="2.62489">
        <ele>93</ele>
        <time>2019-06-16T15:59:18Z</time>
      </trkpt>
      <trkpt lat="48.55901" lon="2.62502">
        <ele>94</ele>
        <time>2019-06-16T15:59:25Z</time>
      </trkpt>
      <trkpt lat="48.55899" lon="2.6251">
        <ele>94</ele>
        <time>2019-06-16T15:59:30Z</time>
      </trkpt>
      <trkpt lat="48.5589" lon="2.62526">
        <ele>94</ele>
        <time>2019-06-16T15:59:39Z</time>
      </trkpt>
      <trkpt lat="48.55883" lon="2.62537">
        <ele>94</ele>
        <time>2019-06-16T15:59:44Z</time>
      </trkpt>
      <trkpt lat="48.55866" lon="2.62553">
        <ele>94</ele>
        <time>2019-06-16T15:59:52Z</time>
      </trkpt>
      <trkpt lat="48.55858" lon="2.62575">
        <ele>95</ele>
        <time>2019-06-16T16:00:02Z</time>
      </trkpt>
      <trkpt lat="48.55854" lon="2.62586">
        <ele>97</ele>
        <time>2019-06-16T16:00:07Z</time>
      </trkpt>
      <trkpt lat="48.55845" lon="2.62609">
        <ele>98</ele>
        <time>2019-06-16T16:00:18Z</time>
      </trkpt>
      <trkpt lat="48.55844" lon="2.62615">
        <ele>98</ele>
        <time>2019-06-16T16:00:22Z</time>
      </trkpt>
      <trkpt lat="48.55844" lon="2.62619">
        <ele>99</ele>
        <time>2019-06-16T16:00:24Z</time>
      </trkpt>
      <trkpt lat="48.55845" lon="2.62635">
        <ele>100</ele>
        <time>2019-06-16T16:00:33Z</time>
      </trkpt>
      <trkpt lat="48.55839" lon="2.62646">
        <ele>101</ele>
        <time>2019-06-16T16:00:40Z</time>
      </trkpt>
      <trkpt lat="48.55829" lon="2.62672">
        <ele>103</ele>
        <time>2019-06-16T16:00:52Z</time>
      </trkpt>
      <trkpt lat="48.55817" lon="2.62692">
        <ele>102</ele>
        <time>2019-06-16T16:01:03Z</time>
      </trkpt>
      <trkpt lat="48.55817" lon="2.62696">
        <ele>102</ele>
        <time>2019-06-16T16:01:06Z</time>
      </trkpt>
      <trkpt lat="48.55806" lon="2.62717">
        <ele>102</ele>
        <time>2019-06-16T16:01:11Z</time>
      </trkpt>
      <trkpt lat="48.55786" lon="2.62769">
        <ele>101</ele>
        <time>2019-06-16T16:01:22Z</time>
      </trkpt>
      <trkpt lat="48.55778" lon="2.628">
        <ele>101</ele>
        <time>2019-06-16T16:01:26Z</time>
      </trkpt>
      <trkpt lat="48.55763" lon="2.62833">
        <ele>101</ele>
        <time>2019-06-16T16:01:30Z</time>
      </trkpt>
      <trkpt lat="48.55756" lon="2.62882">
        <ele>100</ele>
        <time>2019-06-16T16:01:36Z</time>
      </trkpt>
      <trkpt lat="48.55759" lon="2.62894">
        <ele>100</ele>
        <time>2019-06-16T16:01:38Z</time>
      </trkpt>
      <trkpt lat="48.55766" lon="2.6293">
        <ele>100</ele>
        <time>2019-06-16T16:01:48Z</time>
      </trkpt>
      <trkpt lat="48.55781" lon="2.62949">
        <ele>99</ele>
        <time>2019-06-16T16:01:57Z</time>
      </trkpt>
      <trkpt lat="48.55783" lon="2.62953">
        <ele>99</ele>
        <time>2019-06-16T16:01:59Z</time>
      </trkpt>
      <trkpt lat="48.55786" lon="2.62956">
        <ele>99</ele>
        <time>2019-06-16T16:02:01Z</time>
      </trkpt>
      <trkpt lat="48.55787" lon="2.62963">
        <ele>99</ele>
        <time>2019-06-16T16:02:05Z</time>
      </trkpt>
      <trkpt lat="48.55804" lon="2.62972">
        <ele>98</ele>
        <time>2019-06-16T16:02:18Z</time>
      </trkpt>
      <trkpt lat="48.55806" lon="2.62969">
        <ele>98</ele>
        <time>2019-06-16T16:02:21Z</time>
      </trkpt>
      <trkpt lat="48.55809" lon="2.6297">
        <ele>98</ele>
        <time>2019-06-16T16:02:23Z</time>
      </trkpt>
      <trkpt lat="48.55818" lon="2.62969">
        <ele>98</ele>
        <time>2019-06-16T16:02:28Z</time>
      </trkpt>
      <trkpt lat="48.55818" lon="2.62972">
        <ele>98</ele>
        <time>2019-06-16T16:02:30Z</time>
      </trkpt>
      <trkpt lat="48.55847" lon="2.62971">
        <ele>92</ele>
        <time>2019-06-16T16:02:40Z</time>
      </trkpt>
      <trkpt lat="48.55852" lon="2.62968">
        <ele>92</ele>
        <time>2019-06-16T16:02:41Z</time>
      </trkpt>
      <trkpt lat="48.55858" lon="2.6296">
        <ele>92</ele>
        <time>2019-06-16T16:02:43Z</time>
      </trkpt>
      <trkpt lat="48.55894" lon="2.62969">
        <ele>90</ele>
        <time>2019-06-16T16:02:51Z</time>
      </trkpt>
      <trkpt lat="48.55921" lon="2.62979">
        <ele>85</ele>
        <time>2019-06-16T16:03:00Z</time>
      </trkpt>
      <trkpt lat="48.55916" lon="2.62974">
        <ele>89</ele>
        <time>2019-06-16T16:03:06Z</time>
      </trkpt>
      <trkpt lat="48.55911" lon="2.62968">
        <ele>89</ele>
        <time>2019-06-16T16:03:11Z</time>
      </trkpt>
      <trkpt lat="48.55905" lon="2.62946">
        <ele>90</ele>
        <time>2019-06-16T16:03:19Z</time>
      </trkpt>
      <trkpt lat="48.55904" lon="2.62907">
        <ele>90</ele>
        <time>2019-06-16T16:03:28Z</time>
      </trkpt>
      <trkpt lat="48.55915" lon="2.62859">
        <ele>91</ele>
        <time>2019-06-16T16:03:38Z</time>
      </trkpt>
      <trkpt lat="48.55919" lon="2.62834">
        <ele>88</ele>
        <time>2019-06-16T16:03:43Z</time>
      </trkpt>
      <trkpt lat="48.55926" lon="2.62777">
        <ele>87</ele>
        <time>2019-06-16T16:03:53Z</time>
      </trkpt>
      <trkpt lat="48.55935" lon="2.62753">
        <ele>88</ele>
        <time>2019-06-16T16:03:58Z</time>
      </trkpt>
      <trkpt lat="48.55946" lon="2.62723">
        <ele>88</ele>
        <time>2019-06-16T16:04:03Z</time>
      </trkpt>
      <trkpt lat="48.5595" lon="2.62702">
        <ele>89</ele>
        <time>2019-06-16T16:04:07Z</time>
      </trkpt>
      <trkpt lat="48.55956" lon="2.62671">
        <ele>89</ele>
        <time>2019-06-16T16:04:12Z</time>
      </trkpt>
      <trkpt lat="48.55971" lon="2.62642">
        <ele>90</ele>
        <time>2019-06-16T16:04:19Z</time>
      </trkpt>
      <trkpt lat="48.5599" lon="2.62589">
        <ele>87</ele>
        <time>2019-06-16T16:04:30Z</time>
      </trkpt>
      <trkpt lat="48.55988" lon="2.62561">
        <ele>89</ele>
        <time>2019-06-16T16:04:36Z</time>
      </trkpt>
      <trkpt lat="48.55988" lon="2.62554">
        <ele>90</ele>
        <time>2019-06-16T16:04:41Z</time>
      </trkpt>
      <trkpt lat="48.55992" lon="2.62556">
        <ele>89</ele>
        <time>2019-06-16T16:04:43Z</time>
      </trkpt>
      <trkpt lat="48.56004" lon="2.62565">
        <ele>84</ele>
        <time>2019-06-16T16:04:46Z</time>
      </trkpt>
      <trkpt lat="48.56031" lon="2.62559">
        <ele>83</ele>
        <time>2019-06-16T16:04:53Z</time>
      </trkpt>
      <trkpt lat="48.56038" lon="2.6254">
        <ele>83</ele>
        <time>2019-06-16T16:04:57Z</time>
      </trkpt>
      <trkpt lat="48.56046" lon="2.62519">
        <ele>83</ele>
        <time>2019-06-16T16:05:03Z</time>
      </trkpt>
      <trkpt lat="48.56052" lon="2.62506">
        <ele>83</ele>
        <time>2019-06-16T16:05:07Z</time>
      </trkpt>
      <trkpt lat="48.56071" lon="2.62473">
        <ele>84</ele>
        <time>2019-06-16T16:05:14Z</time>
      </trkpt>
      <trkpt lat="48.56122" lon="2.62397">
        <ele>84</ele>
        <time>2019-06-16T16:05:29Z</time>
      </trkpt>
      <trkpt lat="48.56141" lon="2.6237">
        <ele>83</ele>
        <time>2019-06-16T16:05:34Z</time>
      </trkpt>
      <trkpt lat="48.56176" lon="2.62314">
        <ele>81</ele>
        <time>2019-06-16T16:05:46Z</time>
      </trkpt>
      <trkpt lat="48.562" lon="2.62277">
        <ele>81</ele>
        <time>2019-06-16T16:05:56Z</time>
      </trkpt>
      <trkpt lat="48.56202" lon="2.62273">
        <ele>81</ele>
        <time>2019-06-16T16:05:57Z</time>
      </trkpt>
      <trkpt lat="48.56218" lon="2.62276">
        <ele>81</ele>
        <time>2019-06-16T16:06:04Z</time>
      </trkpt>
      <trkpt lat="48.56222" lon="2.62283">
        <ele>80</ele>
        <time>2019-06-16T16:06:06Z</time>
      </trkpt>
      <trkpt lat="48.5625" lon="2.62283">
        <ele>77</ele>
        <time>2019-06-16T16:06:15Z</time>
      </trkpt>
      <trkpt lat="48.56273" lon="2.62311">
        <ele>76</ele>
        <time>2019-06-16T16:06:23Z</time>
      </trkpt>
      <trkpt lat="48.56292" lon="2.62351">
        <ele>76</ele>
        <time>2019-06-16T16:06:31Z</time>
      </trkpt>
      <trkpt lat="48.56296" lon="2.62394">
        <ele>76</ele>
        <time>2019-06-16T16:06:38Z</time>
      </trkpt>
      <trkpt lat="48.56326" lon="2.6241">
        <ele>75</ele>
        <time>2019-06-16T16:06:44Z</time>
      </trkpt>
      <trkpt lat="48.56341" lon="2.62375">
        <ele>75</ele>
        <time>2019-06-16T16:06:50Z</time>
      </trkpt>
      <trkpt lat="48.56333" lon="2.62341">
        <ele>75</ele>
        <time>2019-06-16T16:06:55Z</time>
      </trkpt>
      <trkpt lat="48.56334" lon="2.62321">
        <ele>75</ele>
        <time>2019-06-16T16:06:58Z</time>
      </trkpt>
      <trkpt lat="48.56336" lon="2.62259">
        <ele>74</ele>
        <time>2019-06-16T16:07:07Z</time>
      </trkpt>
      <trkpt lat="48.56335" lon="2.62253">
        <ele>74</ele>
        <time>2019-06-16T16:07:08Z</time>
      </trkpt>
      <trkpt lat="48.5634" lon="2.62183">
        <ele>73</ele>
        <time>2019-06-16T16:07:20Z</time>
      </trkpt>
      <trkpt lat="48.56342" lon="2.62149">
        <ele>73</ele>
        <time>2019-06-16T16:07:30Z</time>
      </trkpt>
      <trkpt lat="48.56346" lon="2.621">
        <ele>74</ele>
        <time>2019-06-16T16:07:41Z</time>
      </trkpt>
      <trkpt lat="48.56353" lon="2.62077">
        <ele>74</ele>
        <time>2019-06-16T16:07:46Z</time>
      </trkpt>
      <trkpt lat="48.56356" lon="2.62061">
        <ele>75</ele>
        <time>2019-06-16T16:07:51Z</time>
      </trkpt>
      <trkpt lat="48.56362" lon="2.62032">
        <ele>75</ele>
        <time>2019-06-16T16:07:58Z</time>
      </trkpt>
      <trkpt lat="48.5636" lon="2.61996">
        <ele>76</ele>
        <time>2019-06-16T16:08:05Z</time>
      </trkpt>
      <trkpt lat="48.56388" lon="2.61905">
        <ele>77</ele>
        <time>2019-06-16T16:08:21Z</time>
      </trkpt>
      <trkpt lat="48.56409" lon="2.61844">
        <ele>77</ele>
        <time>2019-06-16T16:08:33Z</time>
      </trkpt>
      <trkpt lat="48.56417" lon="2.6181">
        <ele>76</ele>
        <time>2019-06-16T16:08:38Z</time>
      </trkpt>
      <trkpt lat="48.56427" lon="2.6176">
        <ele>76</ele>
        <time>2019-06-16T16:08:46Z</time>
      </trkpt>
      <trkpt lat="48.56428" lon="2.61735">
        <ele>76</ele>
        <time>2019-06-16T16:08:51Z</time>
      </trkpt>
      <trkpt lat="48.56432" lon="2.61698">
        <ele>76</ele>
        <time>2019-06-16T16:08:57Z</time>
      </trkpt>
      <trkpt lat="48.56441" lon="2.61601">
        <ele>76</ele>
        <time>2019-06-16T16:09:12Z</time>
      </trkpt>
      <trkpt lat="48.56451" lon="2.61566">
        <ele>76</ele>
        <time>2019-06-16T16:09:19Z</time>
      </trkpt>
      <trkpt lat="48.56468" lon="2.61557">
        <ele>75</ele>
        <time>2019-06-16T16:09:24Z</time>
      </trkpt>
      <trkpt lat="48.56477" lon="2.61557">
        <ele>75</ele>
        <time>2019-06-16T16:09:26Z</time>
      </trkpt>
      <trkpt lat="48.5651" lon="2.6156">
        <ele>74</ele>
        <time>2019-06-16T16:09:33Z</time>
      </trkpt>
      <trkpt lat="48.5653" lon="2.61556">
        <ele>74</ele>
        <time>2019-06-16T16:09:37Z</time>
      </trkpt>
      <trkpt lat="48.56546" lon="2.61522">
        <ele>74</ele>
        <time>2019-06-16T16:09:45Z</time>
      </trkpt>
      <trkpt lat="48.56547" lon="2.61512">
        <ele>74</ele>
        <time>2019-06-16T16:09:47Z</time>
      </trkpt>
      <trkpt lat="48.56549" lon="2.61495">
        <ele>74</ele>
        <time>2019-06-16T16:09:50Z</time>
      </trkpt>
      <trkpt lat="48.56546" lon="2.61461">
        <ele>74</ele>
        <time>2019-06-16T16:09:55Z</time>
      </trkpt>
      <trkpt lat="48.56546" lon="2.61439">
        <ele>74</ele>
        <time>2019-06-16T16:09:58Z</time>
      </trkpt>
      <trkpt lat="48.56545" lon="2.61424">
        <ele>74</ele>
        <time>2019-06-16T16:10:00Z</time>
      </trkpt>
      <trkpt lat="48.56513" lon="2.61338">
        <ele>75</ele>
        <time>2019-06-16T16:10:13Z</time>
      </trkpt>
      <trkpt lat="48.56509" lon="2.61304">
        <ele>75</ele>
        <time>2019-06-16T16:10:19Z</time>
      </trkpt>
      <trkpt lat="48.56544" lon="2.61293">
        <ele>75</ele>
        <time>2019-06-16T16:10:27Z</time>
      </trkpt>
      <trkpt lat="48.56554" lon="2.61294">
        <ele>75</ele>
        <time>2019-06-16T16:10:29Z</time>
      </trkpt>
      <trkpt lat="48.56644" lon="2.6132">
        <ele>73</ele>
        <time>2019-06-16T16:10:45Z</time>
      </trkpt>
      <trkpt lat="48.56654" lon="2.61322">
        <ele>73</ele>
        <time>2019-06-16T16:10:47Z</time>
      </trkpt>
      <trkpt lat="48.56678" lon="2.61304">
        <ele>73</ele>
        <time>2019-06-16T16:10:54Z</time>
      </trkpt>
      <trkpt lat="48.5668" lon="2.6129">
        <ele>73</ele>
        <time>2019-06-16T16:10:56Z</time>
      </trkpt>
      <trkpt lat="48.5668" lon="2.61277">
        <ele>73</ele>
        <time>2019-06-16T16:10:58Z</time>
      </trkpt>
      <trkpt lat="48.56688" lon="2.61261">
        <ele>73</ele>
        <time>2019-06-16T16:11:02Z</time>
      </trkpt>
      <trkpt lat="48.5672" lon="2.61234">
        <ele>72</ele>
        <time>2019-06-16T16:11:10Z</time>
      </trkpt>
      <trkpt lat="48.5674" lon="2.61199">
        <ele>72</ele>
        <time>2019-06-16T16:11:17Z</time>
      </trkpt>
      <trkpt lat="48.56773" lon="2.61173">
        <ele>73</ele>
        <time>2019-06-16T16:11:26Z</time>
      </trkpt>
      <trkpt lat="48.56781" lon="2.61143">
        <ele>74</ele>
        <time>2019-06-16T16:11:34Z</time>
      </trkpt>
      <trkpt lat="48.56792" lon="2.61144">
        <ele>74</ele>
        <time>2019-06-16T16:11:38Z</time>
      </trkpt>
      <trkpt lat="48.56812" lon="2.61135">
        <ele>74</ele>
        <time>2019-06-16T16:11:45Z</time>
      </trkpt>
      <trkpt lat="48.56817" lon="2.61132">
        <ele>75</ele>
        <time>2019-06-16T16:11:47Z</time>
      </trkpt>
      <trkpt lat="48.56822" lon="2.611">
        <ele>75</ele>
        <time>2019-06-16T16:11:57Z</time>
      </trkpt>
      <trkpt lat="48.56819" lon="2.61086">
        <ele>75</ele>
        <time>2019-06-16T16:12:00Z</time>
      </trkpt>
      <trkpt lat="48.56809" lon="2.6102">
        <ele>75</ele>
        <time>2019-06-16T16:12:12Z</time>
      </trkpt>
      <trkpt lat="48.56808" lon="2.61007">
        <ele>75</ele>
        <time>2019-06-16T16:12:14Z</time>
      </trkpt>
      <trkpt lat="48.56833" lon="2.60971">
        <ele>76</ele>
        <time>2019-06-16T16:12:23Z</time>
      </trkpt>
      <trkpt lat="48.56842" lon="2.6097">
        <ele>77</ele>
        <time>2019-06-16T16:12:25Z</time>
      </trkpt>
      <trkpt lat="48.56921" lon="2.60952">
        <ele>78</ele>
        <time>2019-06-16T16:12:43Z</time>
      </trkpt>
      <trkpt lat="48.56978" lon="2.60932">
        <ele>78</ele>
        <time>2019-06-16T16:12:57Z</time>
      </trkpt>
      <trkpt lat="48.57015" lon="2.60914">
        <ele>78</ele>
        <time>2019-06-16T16:13:06Z</time>
      </trkpt>
      <trkpt lat="48.57041" lon="2.60906">
        <ele>79</ele>
        <time>2019-06-16T16:13:12Z</time>
      </trkpt>
      <trkpt lat="48.5705" lon="2.60905">
        <ele>79</ele>
        <time>2019-06-16T16:13:14Z</time>
      </trkpt>
      <trkpt lat="48.57117" lon="2.60909">
        <ele>80</ele>
        <time>2019-06-16T16:13:29Z</time>
      </trkpt>
      <trkpt lat="48.5713" lon="2.60913">
        <ele>80</ele>
        <time>2019-06-16T16:13:32Z</time>
      </trkpt>
      <trkpt lat="48.57147" lon="2.6091">
        <ele>80</ele>
        <time>2019-06-16T16:13:36Z</time>
      </trkpt>
      <trkpt lat="48.57155" lon="2.60904">
        <ele>80</ele>
        <time>2019-06-16T16:13:38Z</time>
      </trkpt>
      <trkpt lat="48.57174" lon="2.60895">
        <ele>80</ele>
        <time>2019-06-16T16:13:42Z</time>
      </trkpt>
      <trkpt lat="48.57193" lon="2.60899">
        <ele>80</ele>
        <time>2019-06-16T16:13:46Z</time>
      </trkpt>
      <trkpt lat="48.57274" lon="2.60935">
        <ele>79</ele>
        <time>2019-06-16T16:14:02Z</time>
      </trkpt>
      <trkpt lat="48.57294" lon="2.60943">
        <ele>79</ele>
        <time>2019-06-16T16:14:06Z</time>
      </trkpt>
      <trkpt lat="48.57308" lon="2.60949">
        <ele>79</ele>
        <time>2019-06-16T16:14:09Z</time>
      </trkpt>
      <trkpt lat="48.57344" lon="2.60962">
        <ele>79</ele>
        <time>2019-06-16T16:14:17Z</time>
      </trkpt>
      <trkpt lat="48.57347" lon="2.60997">
        <ele>79</ele>
        <time>2019-06-16T16:14:23Z</time>
      </trkpt>
      <trkpt lat="48.57355" lon="2.61022">
        <ele>78</ele>
        <time>2019-06-16T16:14:28Z</time>
      </trkpt>
      <trkpt lat="48.57367" lon="2.61028">
        <ele>77</ele>
        <time>2019-06-16T16:14:31Z</time>
      </trkpt>
      <trkpt lat="48.5737" lon="2.61072">
        <ele>77</ele>
        <time>2019-06-16T16:14:38Z</time>
      </trkpt>
      <trkpt lat="48.57369" lon="2.61078">
        <ele>77</ele>
        <time>2019-06-16T16:14:39Z</time>
      </trkpt>
      <trkpt lat="48.57362" lon="2.61112">
        <ele>77</ele>
        <time>2019-06-16T16:14:44Z</time>
      </trkpt>
      <trkpt lat="48.57354" lon="2.61147">
        <ele>77</ele>
        <time>2019-06-16T16:14:49Z</time>
      </trkpt>
      <trkpt lat="48.57349" lon="2.61171">
        <ele>77</ele>
        <time>2019-06-16T16:14:53Z</time>
      </trkpt>
      <trkpt lat="48.57353" lon="2.61192">
        <ele>77</ele>
        <time>2019-06-16T16:14:58Z</time>
      </trkpt>
      <trkpt lat="48.57359" lon="2.61212">
        <ele>77</ele>
        <time>2019-06-16T16:15:03Z</time>
      </trkpt>
      <trkpt lat="48.57354" lon="2.61228">
        <ele>77</ele>
        <time>2019-06-16T16:15:10Z</time>
      </trkpt>
      <trkpt lat="48.57348" lon="2.61228">
        <ele>77</ele>
        <time>2019-06-16T16:15:34Z</time>
      </trkpt>
      <trkpt lat="48.57354" lon="2.61231">
        <ele>77</ele>
        <time>2019-06-16T16:16:04Z</time>
      </trkpt>
      <trkpt lat="48.57355" lon="2.6123">
        <ele>77</ele>
        <time>2019-06-16T16:16:22Z</time>
      </trkpt>
      <trkpt lat="48.57353" lon="2.6123">
        <ele>77</ele>
        <time>2019-06-16T16:16:39Z</time>
      </trkpt>
    </trkseg>
  </trk>
</gpx>